<?xml version="1.0" encoding="UTF-8" standalone="no" ?>
<gpx xmlns="http://www.topografix.com/GPX/1/1" xmlns:xsi="http://www.w3.org/2001/XMLSchema-instance" xsi:schemaLocation="http://www.topografix.com/GPX/1/1 http://www.topografix.com/GPX/1/1/gpx.xsd" version="1.1" creator="VisuGPX - https://www.visugpx.com">
  <metadata>
    <name>Course à pied en soirée</name>
  </metadata>
  <trk>
    <name><![CDATA[Course à pied en soirée_1]]></name>
    <trkseg>
      <trkpt lat="43.64461" lon="1.37937">
        <ele>148</ele>
        <time>2023-06-23T16:23:34Z</time>
      </trkpt>
      <trkpt lat="43.64462" lon="1.37939">
        <ele>148</ele>
        <time>2023-06-23T16:23:35Z</time>
      </trkpt>
      <trkpt lat="43.64465" lon="1.37945">
        <ele>148</ele>
        <time>2023-06-23T16:23:36Z</time>
      </trkpt>
      <trkpt lat="43.64467" lon="1.37949">
        <ele>148</ele>
        <time>2023-06-23T16:23:37Z</time>
      </trkpt>
      <trkpt lat="43.64469" lon="1.37952">
        <ele>148</ele>
        <time>2023-06-23T16:23:38Z</time>
      </trkpt>
      <trkpt lat="43.64471" lon="1.37956">
        <ele>148</ele>
        <time>2023-06-23T16:23:39Z</time>
      </trkpt>
      <trkpt lat="43.64474" lon="1.37958">
        <ele>148</ele>
        <time>2023-06-23T16:23:40Z</time>
      </trkpt>
      <trkpt lat="43.64476" lon="1.37961">
        <ele>147</ele>
        <time>2023-06-23T16:23:41Z</time>
      </trkpt>
      <trkpt lat="43.64479" lon="1.37962">
        <ele>147</ele>
        <time>2023-06-23T16:23:42Z</time>
      </trkpt>
      <trkpt lat="43.64482" lon="1.37964">
        <ele>147</ele>
        <time>2023-06-23T16:23:43Z</time>
      </trkpt>
      <trkpt lat="43.64486" lon="1.37965">
        <ele>147</ele>
        <time>2023-06-23T16:23:44Z</time>
      </trkpt>
      <trkpt lat="43.64489" lon="1.37967">
        <ele>147</ele>
        <time>2023-06-23T16:23:45Z</time>
      </trkpt>
      <trkpt lat="43.64493" lon="1.37968">
        <ele>147</ele>
        <time>2023-06-23T16:23:46Z</time>
      </trkpt>
      <trkpt lat="43.64496" lon="1.37971">
        <ele>147</ele>
        <time>2023-06-23T16:23:47Z</time>
      </trkpt>
      <trkpt lat="43.64499" lon="1.37973">
        <ele>147</ele>
        <time>2023-06-23T16:23:48Z</time>
      </trkpt>
      <trkpt lat="43.64504" lon="1.37975">
        <ele>148</ele>
        <time>2023-06-23T16:23:49Z</time>
      </trkpt>
      <trkpt lat="43.64507" lon="1.37976">
        <ele>148</ele>
        <time>2023-06-23T16:23:50Z</time>
      </trkpt>
      <trkpt lat="43.64509" lon="1.37978">
        <ele>148</ele>
        <time>2023-06-23T16:23:51Z</time>
      </trkpt>
      <trkpt lat="43.64514" lon="1.3798">
        <ele>148</ele>
        <time>2023-06-23T16:23:52Z</time>
      </trkpt>
      <trkpt lat="43.64515" lon="1.3798">
        <ele>147</ele>
        <time>2023-06-23T16:23:53Z</time>
      </trkpt>
      <trkpt lat="43.64518" lon="1.37982">
        <ele>147</ele>
        <time>2023-06-23T16:23:54Z</time>
      </trkpt>
      <trkpt lat="43.64523" lon="1.37984">
        <ele>147</ele>
        <time>2023-06-23T16:23:55Z</time>
      </trkpt>
      <trkpt lat="43.64524" lon="1.37985">
        <ele>147</ele>
        <time>2023-06-23T16:23:56Z</time>
      </trkpt>
      <trkpt lat="43.64527" lon="1.37986">
        <ele>148</ele>
        <time>2023-06-23T16:23:57Z</time>
      </trkpt>
      <trkpt lat="43.6453" lon="1.37987">
        <ele>148</ele>
        <time>2023-06-23T16:23:58Z</time>
      </trkpt>
      <trkpt lat="43.64535" lon="1.37988">
        <ele>148</ele>
        <time>2023-06-23T16:23:59Z</time>
      </trkpt>
      <trkpt lat="43.64537" lon="1.37989">
        <ele>148</ele>
        <time>2023-06-23T16:24:00Z</time>
      </trkpt>
      <trkpt lat="43.6454" lon="1.37989">
        <ele>148</ele>
        <time>2023-06-23T16:24:01Z</time>
      </trkpt>
      <trkpt lat="43.64544" lon="1.37988">
        <ele>148</ele>
        <time>2023-06-23T16:24:02Z</time>
      </trkpt>
      <trkpt lat="43.64547" lon="1.37987">
        <ele>148</ele>
        <time>2023-06-23T16:24:03Z</time>
      </trkpt>
      <trkpt lat="43.64552" lon="1.37984">
        <ele>148</ele>
        <time>2023-06-23T16:24:04Z</time>
      </trkpt>
      <trkpt lat="43.64553" lon="1.37983">
        <ele>148</ele>
        <time>2023-06-23T16:24:05Z</time>
      </trkpt>
      <trkpt lat="43.64556" lon="1.3798">
        <ele>148</ele>
        <time>2023-06-23T16:24:06Z</time>
      </trkpt>
      <trkpt lat="43.64559" lon="1.37977">
        <ele>148</ele>
        <time>2023-06-23T16:24:07Z</time>
      </trkpt>
      <trkpt lat="43.64561" lon="1.37974">
        <ele>148</ele>
        <time>2023-06-23T16:24:08Z</time>
      </trkpt>
      <trkpt lat="43.64564" lon="1.37971">
        <ele>148</ele>
        <time>2023-06-23T16:24:09Z</time>
      </trkpt>
      <trkpt lat="43.64566" lon="1.37967">
        <ele>148</ele>
        <time>2023-06-23T16:24:10Z</time>
      </trkpt>
      <trkpt lat="43.64569" lon="1.37961">
        <ele>148</ele>
        <time>2023-06-23T16:24:11Z</time>
      </trkpt>
      <trkpt lat="43.6457" lon="1.37959">
        <ele>148</ele>
        <time>2023-06-23T16:24:12Z</time>
      </trkpt>
      <trkpt lat="43.64571" lon="1.37953">
        <ele>148</ele>
        <time>2023-06-23T16:24:13Z</time>
      </trkpt>
      <trkpt lat="43.64571" lon="1.37951">
        <ele>148</ele>
        <time>2023-06-23T16:24:14Z</time>
      </trkpt>
      <trkpt lat="43.64571" lon="1.37947">
        <ele>147</ele>
        <time>2023-06-23T16:24:15Z</time>
      </trkpt>
      <trkpt lat="43.64571" lon="1.37943">
        <ele>147</ele>
        <time>2023-06-23T16:24:16Z</time>
      </trkpt>
      <trkpt lat="43.64571" lon="1.37939">
        <ele>147</ele>
        <time>2023-06-23T16:24:17Z</time>
      </trkpt>
      <trkpt lat="43.6457" lon="1.37935">
        <ele>147</ele>
        <time>2023-06-23T16:24:18Z</time>
      </trkpt>
      <trkpt lat="43.64569" lon="1.37929">
        <ele>147</ele>
        <time>2023-06-23T16:24:19Z</time>
      </trkpt>
      <trkpt lat="43.64569" lon="1.37927">
        <ele>147</ele>
        <time>2023-06-23T16:24:20Z</time>
      </trkpt>
      <trkpt lat="43.64567" lon="1.37923">
        <ele>147</ele>
        <time>2023-06-23T16:24:21Z</time>
      </trkpt>
      <trkpt lat="43.64565" lon="1.37919">
        <ele>147</ele>
        <time>2023-06-23T16:24:22Z</time>
      </trkpt>
      <trkpt lat="43.64562" lon="1.37915">
        <ele>147</ele>
        <time>2023-06-23T16:24:23Z</time>
      </trkpt>
      <trkpt lat="43.64558" lon="1.37911">
        <ele>147</ele>
        <time>2023-06-23T16:24:24Z</time>
      </trkpt>
      <trkpt lat="43.64557" lon="1.3791">
        <ele>147</ele>
        <time>2023-06-23T16:24:25Z</time>
      </trkpt>
      <trkpt lat="43.64553" lon="1.37907">
        <ele>147</ele>
        <time>2023-06-23T16:24:26Z</time>
      </trkpt>
      <trkpt lat="43.6455" lon="1.37905">
        <ele>147</ele>
        <time>2023-06-23T16:24:27Z</time>
      </trkpt>
      <trkpt lat="43.64547" lon="1.37903">
        <ele>147</ele>
        <time>2023-06-23T16:24:28Z</time>
      </trkpt>
      <trkpt lat="43.64545" lon="1.37901">
        <ele>148</ele>
        <time>2023-06-23T16:24:29Z</time>
      </trkpt>
      <trkpt lat="43.6454" lon="1.37899">
        <ele>148</ele>
        <time>2023-06-23T16:24:30Z</time>
      </trkpt>
      <trkpt lat="43.64539" lon="1.37898">
        <ele>148</ele>
        <time>2023-06-23T16:24:31Z</time>
      </trkpt>
      <trkpt lat="43.64536" lon="1.37897">
        <ele>148</ele>
        <time>2023-06-23T16:24:32Z</time>
      </trkpt>
      <trkpt lat="43.64533" lon="1.37895">
        <ele>147</ele>
        <time>2023-06-23T16:24:33Z</time>
      </trkpt>
      <trkpt lat="43.64529" lon="1.37892">
        <ele>147</ele>
        <time>2023-06-23T16:24:34Z</time>
      </trkpt>
      <trkpt lat="43.64527" lon="1.37891">
        <ele>147</ele>
        <time>2023-06-23T16:24:35Z</time>
      </trkpt>
      <trkpt lat="43.64524" lon="1.3789">
        <ele>147</ele>
        <time>2023-06-23T16:24:36Z</time>
      </trkpt>
      <trkpt lat="43.64521" lon="1.37889">
        <ele>147</ele>
        <time>2023-06-23T16:24:37Z</time>
      </trkpt>
      <trkpt lat="43.64519" lon="1.37887">
        <ele>147</ele>
        <time>2023-06-23T16:24:38Z</time>
      </trkpt>
      <trkpt lat="43.64515" lon="1.37885">
        <ele>147</ele>
        <time>2023-06-23T16:24:39Z</time>
      </trkpt>
      <trkpt lat="43.64513" lon="1.37884">
        <ele>147</ele>
        <time>2023-06-23T16:24:40Z</time>
      </trkpt>
      <trkpt lat="43.6451" lon="1.37882">
        <ele>147</ele>
        <time>2023-06-23T16:24:41Z</time>
      </trkpt>
      <trkpt lat="43.64507" lon="1.3788">
        <ele>147</ele>
        <time>2023-06-23T16:24:42Z</time>
      </trkpt>
      <trkpt lat="43.64504" lon="1.37879">
        <ele>148</ele>
        <time>2023-06-23T16:24:43Z</time>
      </trkpt>
      <trkpt lat="43.64501" lon="1.37877">
        <ele>148</ele>
        <time>2023-06-23T16:24:44Z</time>
      </trkpt>
      <trkpt lat="43.64498" lon="1.37875">
        <ele>148</ele>
        <time>2023-06-23T16:24:45Z</time>
      </trkpt>
      <trkpt lat="43.64494" lon="1.37874">
        <ele>148</ele>
        <time>2023-06-23T16:24:46Z</time>
      </trkpt>
      <trkpt lat="43.64493" lon="1.37873">
        <ele>148</ele>
        <time>2023-06-23T16:24:47Z</time>
      </trkpt>
      <trkpt lat="43.6449" lon="1.37873">
        <ele>148</ele>
        <time>2023-06-23T16:24:48Z</time>
      </trkpt>
      <trkpt lat="43.64487" lon="1.37874">
        <ele>148</ele>
        <time>2023-06-23T16:24:49Z</time>
      </trkpt>
      <trkpt lat="43.64484" lon="1.37874">
        <ele>148</ele>
        <time>2023-06-23T16:24:50Z</time>
      </trkpt>
      <trkpt lat="43.64481" lon="1.37875">
        <ele>147</ele>
        <time>2023-06-23T16:24:51Z</time>
      </trkpt>
      <trkpt lat="43.64478" lon="1.37876">
        <ele>147</ele>
        <time>2023-06-23T16:24:52Z</time>
      </trkpt>
      <trkpt lat="43.64474" lon="1.37878">
        <ele>148</ele>
        <time>2023-06-23T16:24:53Z</time>
      </trkpt>
      <trkpt lat="43.64473" lon="1.37879">
        <ele>148</ele>
        <time>2023-06-23T16:24:54Z</time>
      </trkpt>
      <trkpt lat="43.6447" lon="1.37881">
        <ele>148</ele>
        <time>2023-06-23T16:24:55Z</time>
      </trkpt>
      <trkpt lat="43.64467" lon="1.37883">
        <ele>148</ele>
        <time>2023-06-23T16:24:56Z</time>
      </trkpt>
      <trkpt lat="43.64465" lon="1.37885">
        <ele>148</ele>
        <time>2023-06-23T16:24:57Z</time>
      </trkpt>
      <trkpt lat="43.64464" lon="1.37888">
        <ele>147</ele>
        <time>2023-06-23T16:24:58Z</time>
      </trkpt>
      <trkpt lat="43.64462" lon="1.37891">
        <ele>148</ele>
        <time>2023-06-23T16:24:59Z</time>
      </trkpt>
      <trkpt lat="43.64461" lon="1.37895">
        <ele>148</ele>
        <time>2023-06-23T16:25:00Z</time>
      </trkpt>
      <trkpt lat="43.6446" lon="1.37898">
        <ele>148</ele>
        <time>2023-06-23T16:25:01Z</time>
      </trkpt>
      <trkpt lat="43.64459" lon="1.37901">
        <ele>148</ele>
        <time>2023-06-23T16:25:02Z</time>
      </trkpt>
      <trkpt lat="43.64458" lon="1.37905">
        <ele>148</ele>
        <time>2023-06-23T16:25:03Z</time>
      </trkpt>
      <trkpt lat="43.64458" lon="1.37909">
        <ele>148</ele>
        <time>2023-06-23T16:25:04Z</time>
      </trkpt>
      <trkpt lat="43.64458" lon="1.37913">
        <ele>148</ele>
        <time>2023-06-23T16:25:05Z</time>
      </trkpt>
      <trkpt lat="43.64458" lon="1.37917">
        <ele>148</ele>
        <time>2023-06-23T16:25:06Z</time>
      </trkpt>
      <trkpt lat="43.64458" lon="1.37924">
        <ele>148</ele>
        <time>2023-06-23T16:25:07Z</time>
      </trkpt>
      <trkpt lat="43.64459" lon="1.37927">
        <ele>148</ele>
        <time>2023-06-23T16:25:08Z</time>
      </trkpt>
      <trkpt lat="43.6446" lon="1.3793">
        <ele>148</ele>
        <time>2023-06-23T16:25:09Z</time>
      </trkpt>
      <trkpt lat="43.64461" lon="1.37933">
        <ele>148</ele>
        <time>2023-06-23T16:25:10Z</time>
      </trkpt>
      <trkpt lat="43.64461" lon="1.37937">
        <ele>148</ele>
        <time>2023-06-23T16:25:11Z</time>
      </trkpt>
      <trkpt lat="43.64463" lon="1.37941">
        <ele>148</ele>
        <time>2023-06-23T16:25:12Z</time>
      </trkpt>
      <trkpt lat="43.64465" lon="1.37944">
        <ele>148</ele>
        <time>2023-06-23T16:25:13Z</time>
      </trkpt>
      <trkpt lat="43.64467" lon="1.37947">
        <ele>148</ele>
        <time>2023-06-23T16:25:14Z</time>
      </trkpt>
      <trkpt lat="43.6447" lon="1.37951">
        <ele>148</ele>
        <time>2023-06-23T16:25:15Z</time>
      </trkpt>
      <trkpt lat="43.64471" lon="1.37952">
        <ele>148</ele>
        <time>2023-06-23T16:25:16Z</time>
      </trkpt>
      <trkpt lat="43.64473" lon="1.37954">
        <ele>148</ele>
        <time>2023-06-23T16:25:17Z</time>
      </trkpt>
      <trkpt lat="43.64475" lon="1.37956">
        <ele>148</ele>
        <time>2023-06-23T16:25:18Z</time>
      </trkpt>
      <trkpt lat="43.64477" lon="1.37958">
        <ele>148</ele>
        <time>2023-06-23T16:25:19Z</time>
      </trkpt>
      <trkpt lat="43.6448" lon="1.37959">
        <ele>148</ele>
        <time>2023-06-23T16:25:20Z</time>
      </trkpt>
      <trkpt lat="43.64482" lon="1.37961">
        <ele>148</ele>
        <time>2023-06-23T16:25:21Z</time>
      </trkpt>
      <trkpt lat="43.64485" lon="1.37963">
        <ele>148</ele>
        <time>2023-06-23T16:25:22Z</time>
      </trkpt>
      <trkpt lat="43.64488" lon="1.37965">
        <ele>147</ele>
        <time>2023-06-23T16:25:23Z</time>
      </trkpt>
      <trkpt lat="43.6449" lon="1.37966">
        <ele>147</ele>
        <time>2023-06-23T16:25:24Z</time>
      </trkpt>
      <trkpt lat="43.64494" lon="1.37969">
        <ele>147</ele>
        <time>2023-06-23T16:25:25Z</time>
      </trkpt>
      <trkpt lat="43.64496" lon="1.37969">
        <ele>147</ele>
        <time>2023-06-23T16:25:26Z</time>
      </trkpt>
      <trkpt lat="43.64498" lon="1.37971">
        <ele>147</ele>
        <time>2023-06-23T16:25:27Z</time>
      </trkpt>
      <trkpt lat="43.64501" lon="1.37973">
        <ele>148</ele>
        <time>2023-06-23T16:25:28Z</time>
      </trkpt>
      <trkpt lat="43.64503" lon="1.37975">
        <ele>148</ele>
        <time>2023-06-23T16:25:29Z</time>
      </trkpt>
      <trkpt lat="43.64506" lon="1.37976">
        <ele>147</ele>
        <time>2023-06-23T16:25:30Z</time>
      </trkpt>
      <trkpt lat="43.64508" lon="1.37978">
        <ele>147</ele>
        <time>2023-06-23T16:25:31Z</time>
      </trkpt>
      <trkpt lat="43.64511" lon="1.3798">
        <ele>147</ele>
        <time>2023-06-23T16:25:32Z</time>
      </trkpt>
      <trkpt lat="43.64514" lon="1.37981">
        <ele>147</ele>
        <time>2023-06-23T16:25:33Z</time>
      </trkpt>
      <trkpt lat="43.64519" lon="1.37984">
        <ele>147</ele>
        <time>2023-06-23T16:25:34Z</time>
      </trkpt>
      <trkpt lat="43.6452" lon="1.37985">
        <ele>147</ele>
        <time>2023-06-23T16:25:35Z</time>
      </trkpt>
      <trkpt lat="43.64523" lon="1.37986">
        <ele>147</ele>
        <time>2023-06-23T16:25:36Z</time>
      </trkpt>
      <trkpt lat="43.64526" lon="1.37987">
        <ele>147</ele>
        <time>2023-06-23T16:25:37Z</time>
      </trkpt>
      <trkpt lat="43.6453" lon="1.37989">
        <ele>147</ele>
        <time>2023-06-23T16:25:38Z</time>
      </trkpt>
      <trkpt lat="43.64533" lon="1.37989">
        <ele>147</ele>
        <time>2023-06-23T16:25:39Z</time>
      </trkpt>
      <trkpt lat="43.64536" lon="1.3799">
        <ele>147</ele>
        <time>2023-06-23T16:25:40Z</time>
      </trkpt>
      <trkpt lat="43.64538" lon="1.37989">
        <ele>147</ele>
        <time>2023-06-23T16:25:41Z</time>
      </trkpt>
      <trkpt lat="43.64544" lon="1.37987">
        <ele>147</ele>
        <time>2023-06-23T16:25:42Z</time>
      </trkpt>
      <trkpt lat="43.64546" lon="1.37986">
        <ele>148</ele>
        <time>2023-06-23T16:25:43Z</time>
      </trkpt>
      <trkpt lat="43.64549" lon="1.37985">
        <ele>148</ele>
        <time>2023-06-23T16:25:44Z</time>
      </trkpt>
      <trkpt lat="43.64555" lon="1.3798">
        <ele>148</ele>
        <time>2023-06-23T16:25:45Z</time>
      </trkpt>
      <trkpt lat="43.64557" lon="1.37979">
        <ele>148</ele>
        <time>2023-06-23T16:25:46Z</time>
      </trkpt>
      <trkpt lat="43.64559" lon="1.37977">
        <ele>148</ele>
        <time>2023-06-23T16:25:47Z</time>
      </trkpt>
      <trkpt lat="43.64562" lon="1.37974">
        <ele>148</ele>
        <time>2023-06-23T16:25:48Z</time>
      </trkpt>
      <trkpt lat="43.64564" lon="1.3797">
        <ele>148</ele>
        <time>2023-06-23T16:25:49Z</time>
      </trkpt>
      <trkpt lat="43.64566" lon="1.37966">
        <ele>148</ele>
        <time>2023-06-23T16:25:50Z</time>
      </trkpt>
      <trkpt lat="43.64567" lon="1.37962">
        <ele>148</ele>
        <time>2023-06-23T16:25:51Z</time>
      </trkpt>
      <trkpt lat="43.64569" lon="1.37958">
        <ele>148</ele>
        <time>2023-06-23T16:25:52Z</time>
      </trkpt>
      <trkpt lat="43.6457" lon="1.37954">
        <ele>148</ele>
        <time>2023-06-23T16:25:53Z</time>
      </trkpt>
      <trkpt lat="43.64571" lon="1.3795">
        <ele>148</ele>
        <time>2023-06-23T16:25:54Z</time>
      </trkpt>
      <trkpt lat="43.64571" lon="1.37946">
        <ele>148</ele>
        <time>2023-06-23T16:25:55Z</time>
      </trkpt>
      <trkpt lat="43.64572" lon="1.3794">
        <ele>148</ele>
        <time>2023-06-23T16:25:56Z</time>
      </trkpt>
      <trkpt lat="43.64572" lon="1.37938">
        <ele>148</ele>
        <time>2023-06-23T16:25:57Z</time>
      </trkpt>
      <trkpt lat="43.6457" lon="1.37934">
        <ele>148</ele>
        <time>2023-06-23T16:25:58Z</time>
      </trkpt>
      <trkpt lat="43.64569" lon="1.3793">
        <ele>148</ele>
        <time>2023-06-23T16:25:59Z</time>
      </trkpt>
      <trkpt lat="43.64567" lon="1.37925">
        <ele>148</ele>
        <time>2023-06-23T16:26:00Z</time>
      </trkpt>
      <trkpt lat="43.64565" lon="1.37921">
        <ele>148</ele>
        <time>2023-06-23T16:26:01Z</time>
      </trkpt>
      <trkpt lat="43.64564" lon="1.37918">
        <ele>148</ele>
        <time>2023-06-23T16:26:02Z</time>
      </trkpt>
      <trkpt lat="43.64561" lon="1.37914">
        <ele>148</ele>
        <time>2023-06-23T16:26:03Z</time>
      </trkpt>
      <trkpt lat="43.64559" lon="1.37912">
        <ele>148</ele>
        <time>2023-06-23T16:26:04Z</time>
      </trkpt>
      <trkpt lat="43.64555" lon="1.37909">
        <ele>148</ele>
        <time>2023-06-23T16:26:05Z</time>
      </trkpt>
      <trkpt lat="43.64554" lon="1.37908">
        <ele>148</ele>
        <time>2023-06-23T16:26:06Z</time>
      </trkpt>
      <trkpt lat="43.64551" lon="1.37907">
        <ele>147</ele>
        <time>2023-06-23T16:26:07Z</time>
      </trkpt>
      <trkpt lat="43.64548" lon="1.37905">
        <ele>147</ele>
        <time>2023-06-23T16:26:08Z</time>
      </trkpt>
      <trkpt lat="43.64546" lon="1.37903">
        <ele>147</ele>
        <time>2023-06-23T16:26:09Z</time>
      </trkpt>
      <trkpt lat="43.64541" lon="1.379">
        <ele>147</ele>
        <time>2023-06-23T16:26:10Z</time>
      </trkpt>
      <trkpt lat="43.6454" lon="1.37899">
        <ele>148</ele>
        <time>2023-06-23T16:26:11Z</time>
      </trkpt>
      <trkpt lat="43.64535" lon="1.37896">
        <ele>148</ele>
        <time>2023-06-23T16:26:12Z</time>
      </trkpt>
      <trkpt lat="43.64533" lon="1.37896">
        <ele>148</ele>
        <time>2023-06-23T16:26:13Z</time>
      </trkpt>
      <trkpt lat="43.6453" lon="1.37894">
        <ele>148</ele>
        <time>2023-06-23T16:26:14Z</time>
      </trkpt>
      <trkpt lat="43.64527" lon="1.37893">
        <ele>148</ele>
        <time>2023-06-23T16:26:15Z</time>
      </trkpt>
      <trkpt lat="43.64524" lon="1.3789">
        <ele>148</ele>
        <time>2023-06-23T16:26:16Z</time>
      </trkpt>
      <trkpt lat="43.64521" lon="1.37888">
        <ele>148</ele>
        <time>2023-06-23T16:26:17Z</time>
      </trkpt>
      <trkpt lat="43.64518" lon="1.37887">
        <ele>148</ele>
        <time>2023-06-23T16:26:18Z</time>
      </trkpt>
      <trkpt lat="43.64515" lon="1.37885">
        <ele>148</ele>
        <time>2023-06-23T16:26:19Z</time>
      </trkpt>
      <trkpt lat="43.64513" lon="1.37884">
        <ele>148</ele>
        <time>2023-06-23T16:26:20Z</time>
      </trkpt>
      <trkpt lat="43.6451" lon="1.37882">
        <ele>148</ele>
        <time>2023-06-23T16:26:21Z</time>
      </trkpt>
      <trkpt lat="43.64507" lon="1.3788">
        <ele>148</ele>
        <time>2023-06-23T16:26:22Z</time>
      </trkpt>
      <trkpt lat="43.64504" lon="1.37878">
        <ele>148</ele>
        <time>2023-06-23T16:26:23Z</time>
      </trkpt>
      <trkpt lat="43.645" lon="1.37876">
        <ele>148</ele>
        <time>2023-06-23T16:26:24Z</time>
      </trkpt>
      <trkpt lat="43.64498" lon="1.37876">
        <ele>148</ele>
        <time>2023-06-23T16:26:25Z</time>
      </trkpt>
      <trkpt lat="43.64495" lon="1.37875">
        <ele>148</ele>
        <time>2023-06-23T16:26:26Z</time>
      </trkpt>
      <trkpt lat="43.64493" lon="1.37874">
        <ele>148</ele>
        <time>2023-06-23T16:26:27Z</time>
      </trkpt>
      <trkpt lat="43.64488" lon="1.37873">
        <ele>148</ele>
        <time>2023-06-23T16:26:28Z</time>
      </trkpt>
      <trkpt lat="43.64486" lon="1.37873">
        <ele>148</ele>
        <time>2023-06-23T16:26:29Z</time>
      </trkpt>
      <trkpt lat="43.64483" lon="1.37873">
        <ele>148</ele>
        <time>2023-06-23T16:26:30Z</time>
      </trkpt>
      <trkpt lat="43.6448" lon="1.37874">
        <ele>148</ele>
        <time>2023-06-23T16:26:31Z</time>
      </trkpt>
      <trkpt lat="43.64478" lon="1.37875">
        <ele>148</ele>
        <time>2023-06-23T16:26:32Z</time>
      </trkpt>
      <trkpt lat="43.64475" lon="1.37876">
        <ele>148</ele>
        <time>2023-06-23T16:26:33Z</time>
      </trkpt>
      <trkpt lat="43.64472" lon="1.37878">
        <ele>148</ele>
        <time>2023-06-23T16:26:34Z</time>
      </trkpt>
      <trkpt lat="43.6447" lon="1.3788">
        <ele>148</ele>
        <time>2023-06-23T16:26:35Z</time>
      </trkpt>
      <trkpt lat="43.64467" lon="1.37883">
        <ele>148</ele>
        <time>2023-06-23T16:26:36Z</time>
      </trkpt>
      <trkpt lat="43.64466" lon="1.37885">
        <ele>148</ele>
        <time>2023-06-23T16:26:37Z</time>
      </trkpt>
      <trkpt lat="43.64464" lon="1.37888">
        <ele>148</ele>
        <time>2023-06-23T16:26:38Z</time>
      </trkpt>
      <trkpt lat="43.64462" lon="1.37891">
        <ele>148</ele>
        <time>2023-06-23T16:26:39Z</time>
      </trkpt>
      <trkpt lat="43.64461" lon="1.37895">
        <ele>148</ele>
        <time>2023-06-23T16:26:40Z</time>
      </trkpt>
      <trkpt lat="43.6446" lon="1.37897">
        <ele>148</ele>
        <time>2023-06-23T16:26:41Z</time>
      </trkpt>
      <trkpt lat="43.64459" lon="1.379">
        <ele>148</ele>
        <time>2023-06-23T16:26:42Z</time>
      </trkpt>
      <trkpt lat="43.64458" lon="1.37906">
        <ele>148</ele>
        <time>2023-06-23T16:26:43Z</time>
      </trkpt>
      <trkpt lat="43.64458" lon="1.37907">
        <ele>148</ele>
        <time>2023-06-23T16:26:44Z</time>
      </trkpt>
      <trkpt lat="43.64457" lon="1.37911">
        <ele>148</ele>
        <time>2023-06-23T16:26:45Z</time>
      </trkpt>
      <trkpt lat="43.64457" lon="1.37917">
        <ele>148</ele>
        <time>2023-06-23T16:26:46Z</time>
      </trkpt>
      <trkpt lat="43.64457" lon="1.37919">
        <ele>148</ele>
        <time>2023-06-23T16:26:47Z</time>
      </trkpt>
      <trkpt lat="43.64457" lon="1.37923">
        <ele>148</ele>
        <time>2023-06-23T16:26:48Z</time>
      </trkpt>
      <trkpt lat="43.64458" lon="1.37929">
        <ele>147</ele>
        <time>2023-06-23T16:26:49Z</time>
      </trkpt>
      <trkpt lat="43.64458" lon="1.37931">
        <ele>148</ele>
        <time>2023-06-23T16:26:50Z</time>
      </trkpt>
      <trkpt lat="43.6446" lon="1.37935">
        <ele>148</ele>
        <time>2023-06-23T16:26:51Z</time>
      </trkpt>
      <trkpt lat="43.64461" lon="1.37938">
        <ele>148</ele>
        <time>2023-06-23T16:26:52Z</time>
      </trkpt>
      <trkpt lat="43.64463" lon="1.37942">
        <ele>148</ele>
        <time>2023-06-23T16:26:53Z</time>
      </trkpt>
      <trkpt lat="43.64464" lon="1.37945">
        <ele>148</ele>
        <time>2023-06-23T16:26:54Z</time>
      </trkpt>
      <trkpt lat="43.64466" lon="1.37948">
        <ele>148</ele>
        <time>2023-06-23T16:26:55Z</time>
      </trkpt>
      <trkpt lat="43.64467" lon="1.3795">
        <ele>148</ele>
        <time>2023-06-23T16:26:56Z</time>
      </trkpt>
      <trkpt lat="43.64467" lon="1.3795">
        <ele>148</ele>
        <time>2023-06-23T16:26:57Z</time>
      </trkpt>
      <trkpt lat="43.6447" lon="1.37953">
        <ele>148</ele>
        <time>2023-06-23T16:26:58Z</time>
      </trkpt>
      <trkpt lat="43.64471" lon="1.37955">
        <ele>148</ele>
        <time>2023-06-23T16:26:59Z</time>
      </trkpt>
      <trkpt lat="43.64474" lon="1.37957">
        <ele>148</ele>
        <time>2023-06-23T16:27:00Z</time>
      </trkpt>
      <trkpt lat="43.64476" lon="1.37958">
        <ele>148</ele>
        <time>2023-06-23T16:27:01Z</time>
      </trkpt>
      <trkpt lat="43.6448" lon="1.37961">
        <ele>147</ele>
        <time>2023-06-23T16:27:03Z</time>
      </trkpt>
      <trkpt lat="43.64484" lon="1.37964">
        <ele>147</ele>
        <time>2023-06-23T16:27:04Z</time>
      </trkpt>
      <trkpt lat="43.64489" lon="1.37966">
        <ele>147</ele>
        <time>2023-06-23T16:27:05Z</time>
      </trkpt>
      <trkpt lat="43.6449" lon="1.37967">
        <ele>147</ele>
        <time>2023-06-23T16:27:06Z</time>
      </trkpt>
      <trkpt lat="43.64493" lon="1.37969">
        <ele>147</ele>
        <time>2023-06-23T16:27:07Z</time>
      </trkpt>
      <trkpt lat="43.64498" lon="1.37972">
        <ele>147</ele>
        <time>2023-06-23T16:27:08Z</time>
      </trkpt>
      <trkpt lat="43.645" lon="1.37972">
        <ele>148</ele>
        <time>2023-06-23T16:27:09Z</time>
      </trkpt>
      <trkpt lat="43.64503" lon="1.37974">
        <ele>148</ele>
        <time>2023-06-23T16:27:10Z</time>
      </trkpt>
      <trkpt lat="43.64507" lon="1.37975">
        <ele>148</ele>
        <time>2023-06-23T16:27:11Z</time>
      </trkpt>
      <trkpt lat="43.6451" lon="1.37976">
        <ele>148</ele>
        <time>2023-06-23T16:27:12Z</time>
      </trkpt>
      <trkpt lat="43.64513" lon="1.37977">
        <ele>148</ele>
        <time>2023-06-23T16:27:13Z</time>
      </trkpt>
      <trkpt lat="43.64516" lon="1.37978">
        <ele>148</ele>
        <time>2023-06-23T16:27:14Z</time>
      </trkpt>
      <trkpt lat="43.6452" lon="1.3798">
        <ele>148</ele>
        <time>2023-06-23T16:27:15Z</time>
      </trkpt>
      <trkpt lat="43.64522" lon="1.37981">
        <ele>148</ele>
        <time>2023-06-23T16:27:16Z</time>
      </trkpt>
      <trkpt lat="43.64524" lon="1.37982">
        <ele>148</ele>
        <time>2023-06-23T16:27:17Z</time>
      </trkpt>
      <trkpt lat="43.64527" lon="1.37983">
        <ele>148</ele>
        <time>2023-06-23T16:27:18Z</time>
      </trkpt>
      <trkpt lat="43.64531" lon="1.37984">
        <ele>148</ele>
        <time>2023-06-23T16:27:19Z</time>
      </trkpt>
      <trkpt lat="43.64533" lon="1.37984">
        <ele>148</ele>
        <time>2023-06-23T16:27:20Z</time>
      </trkpt>
      <trkpt lat="43.64534" lon="1.37984">
        <ele>148</ele>
        <time>2023-06-23T16:27:21Z</time>
      </trkpt>
      <trkpt lat="43.6454" lon="1.37984">
        <ele>148</ele>
        <time>2023-06-23T16:27:22Z</time>
      </trkpt>
      <trkpt lat="43.64543" lon="1.37983">
        <ele>148</ele>
        <time>2023-06-23T16:27:23Z</time>
      </trkpt>
      <trkpt lat="43.64547" lon="1.37982">
        <ele>148</ele>
        <time>2023-06-23T16:27:24Z</time>
      </trkpt>
      <trkpt lat="43.6455" lon="1.3798">
        <ele>148</ele>
        <time>2023-06-23T16:27:25Z</time>
      </trkpt>
      <trkpt lat="43.64553" lon="1.37979">
        <ele>148</ele>
        <time>2023-06-23T16:27:26Z</time>
      </trkpt>
      <trkpt lat="43.64556" lon="1.37977">
        <ele>148</ele>
        <time>2023-06-23T16:27:27Z</time>
      </trkpt>
      <trkpt lat="43.64558" lon="1.37975">
        <ele>147</ele>
        <time>2023-06-23T16:27:28Z</time>
      </trkpt>
      <trkpt lat="43.64561" lon="1.37972">
        <ele>147</ele>
        <time>2023-06-23T16:27:29Z</time>
      </trkpt>
      <trkpt lat="43.64563" lon="1.37969">
        <ele>147</ele>
        <time>2023-06-23T16:27:30Z</time>
      </trkpt>
      <trkpt lat="43.64566" lon="1.37966">
        <ele>147</ele>
        <time>2023-06-23T16:27:31Z</time>
      </trkpt>
      <trkpt lat="43.64568" lon="1.37963">
        <ele>147</ele>
        <time>2023-06-23T16:27:32Z</time>
      </trkpt>
      <trkpt lat="43.64569" lon="1.37959">
        <ele>148</ele>
        <time>2023-06-23T16:27:33Z</time>
      </trkpt>
      <trkpt lat="43.64571" lon="1.37956">
        <ele>148</ele>
        <time>2023-06-23T16:27:34Z</time>
      </trkpt>
      <trkpt lat="43.64572" lon="1.37952">
        <ele>148</ele>
        <time>2023-06-23T16:27:35Z</time>
      </trkpt>
      <trkpt lat="43.64572" lon="1.37949">
        <ele>148</ele>
        <time>2023-06-23T16:27:36Z</time>
      </trkpt>
      <trkpt lat="43.64572" lon="1.37942">
        <ele>148</ele>
        <time>2023-06-23T16:27:38Z</time>
      </trkpt>
      <trkpt lat="43.64572" lon="1.37938">
        <ele>148</ele>
        <time>2023-06-23T16:27:39Z</time>
      </trkpt>
      <trkpt lat="43.64571" lon="1.37932">
        <ele>148</ele>
        <time>2023-06-23T16:27:40Z</time>
      </trkpt>
      <trkpt lat="43.6457" lon="1.3793">
        <ele>148</ele>
        <time>2023-06-23T16:27:41Z</time>
      </trkpt>
      <trkpt lat="43.64568" lon="1.37927">
        <ele>148</ele>
        <time>2023-06-23T16:27:42Z</time>
      </trkpt>
      <trkpt lat="43.64566" lon="1.37923">
        <ele>147</ele>
        <time>2023-06-23T16:27:43Z</time>
      </trkpt>
      <trkpt lat="43.64563" lon="1.37919">
        <ele>148</ele>
        <time>2023-06-23T16:27:44Z</time>
      </trkpt>
      <trkpt lat="43.64562" lon="1.37917">
        <ele>148</ele>
        <time>2023-06-23T16:27:45Z</time>
      </trkpt>
      <trkpt lat="43.64558" lon="1.37913">
        <ele>148</ele>
        <time>2023-06-23T16:27:46Z</time>
      </trkpt>
      <trkpt lat="43.64557" lon="1.37912">
        <ele>148</ele>
        <time>2023-06-23T16:27:47Z</time>
      </trkpt>
      <trkpt lat="43.64554" lon="1.3791">
        <ele>148</ele>
        <time>2023-06-23T16:27:48Z</time>
      </trkpt>
      <trkpt lat="43.64551" lon="1.37908">
        <ele>148</ele>
        <time>2023-06-23T16:27:49Z</time>
      </trkpt>
      <trkpt lat="43.64548" lon="1.37906">
        <ele>148</ele>
        <time>2023-06-23T16:27:50Z</time>
      </trkpt>
      <trkpt lat="43.64545" lon="1.37905">
        <ele>148</ele>
        <time>2023-06-23T16:27:51Z</time>
      </trkpt>
      <trkpt lat="43.64542" lon="1.37903">
        <ele>148</ele>
        <time>2023-06-23T16:27:52Z</time>
      </trkpt>
      <trkpt lat="43.64536" lon="1.37899">
        <ele>148</ele>
        <time>2023-06-23T16:27:54Z</time>
      </trkpt>
      <trkpt lat="43.64534" lon="1.37898">
        <ele>148</ele>
        <time>2023-06-23T16:27:55Z</time>
      </trkpt>
      <trkpt lat="43.64531" lon="1.37896">
        <ele>148</ele>
        <time>2023-06-23T16:27:56Z</time>
      </trkpt>
      <trkpt lat="43.64529" lon="1.37894">
        <ele>148</ele>
        <time>2023-06-23T16:27:57Z</time>
      </trkpt>
      <trkpt lat="43.64526" lon="1.37892">
        <ele>148</ele>
        <time>2023-06-23T16:27:58Z</time>
      </trkpt>
      <trkpt lat="43.64522" lon="1.37889">
        <ele>148</ele>
        <time>2023-06-23T16:27:59Z</time>
      </trkpt>
      <trkpt lat="43.6452" lon="1.37888">
        <ele>148</ele>
        <time>2023-06-23T16:28:00Z</time>
      </trkpt>
      <trkpt lat="43.64517" lon="1.37886">
        <ele>148</ele>
        <time>2023-06-23T16:28:01Z</time>
      </trkpt>
      <trkpt lat="43.64515" lon="1.37885">
        <ele>148</ele>
        <time>2023-06-23T16:28:02Z</time>
      </trkpt>
      <trkpt lat="43.64512" lon="1.37883">
        <ele>148</ele>
        <time>2023-06-23T16:28:03Z</time>
      </trkpt>
      <trkpt lat="43.6451" lon="1.37882">
        <ele>148</ele>
        <time>2023-06-23T16:28:04Z</time>
      </trkpt>
      <trkpt lat="43.64507" lon="1.3788">
        <ele>148</ele>
        <time>2023-06-23T16:28:05Z</time>
      </trkpt>
      <trkpt lat="43.64504" lon="1.37878">
        <ele>148</ele>
        <time>2023-06-23T16:28:06Z</time>
      </trkpt>
      <trkpt lat="43.64501" lon="1.37876">
        <ele>148</ele>
        <time>2023-06-23T16:28:07Z</time>
      </trkpt>
      <trkpt lat="43.64498" lon="1.37874">
        <ele>148</ele>
        <time>2023-06-23T16:28:08Z</time>
      </trkpt>
      <trkpt lat="43.64495" lon="1.37873">
        <ele>148</ele>
        <time>2023-06-23T16:28:09Z</time>
      </trkpt>
      <trkpt lat="43.6449" lon="1.37873">
        <ele>148</ele>
        <time>2023-06-23T16:28:11Z</time>
      </trkpt>
      <trkpt lat="43.64487" lon="1.37874">
        <ele>148</ele>
        <time>2023-06-23T16:28:12Z</time>
      </trkpt>
      <trkpt lat="43.64484" lon="1.37874">
        <ele>148</ele>
        <time>2023-06-23T16:28:13Z</time>
      </trkpt>
      <trkpt lat="43.64481" lon="1.37875">
        <ele>148</ele>
        <time>2023-06-23T16:28:14Z</time>
      </trkpt>
      <trkpt lat="43.64479" lon="1.37875">
        <ele>148</ele>
        <time>2023-06-23T16:28:15Z</time>
      </trkpt>
      <trkpt lat="43.64476" lon="1.37877">
        <ele>148</ele>
        <time>2023-06-23T16:28:16Z</time>
      </trkpt>
      <trkpt lat="43.64473" lon="1.37878">
        <ele>148</ele>
        <time>2023-06-23T16:28:17Z</time>
      </trkpt>
      <trkpt lat="43.64471" lon="1.37881">
        <ele>148</ele>
        <time>2023-06-23T16:28:18Z</time>
      </trkpt>
      <trkpt lat="43.64469" lon="1.37883">
        <ele>148</ele>
        <time>2023-06-23T16:28:19Z</time>
      </trkpt>
      <trkpt lat="43.64468" lon="1.37885">
        <ele>148</ele>
        <time>2023-06-23T16:28:20Z</time>
      </trkpt>
      <trkpt lat="43.64466" lon="1.37888">
        <ele>148</ele>
        <time>2023-06-23T16:28:21Z</time>
      </trkpt>
      <trkpt lat="43.64464" lon="1.37891">
        <ele>148</ele>
        <time>2023-06-23T16:28:22Z</time>
      </trkpt>
      <trkpt lat="43.64463" lon="1.37894">
        <ele>148</ele>
        <time>2023-06-23T16:28:23Z</time>
      </trkpt>
      <trkpt lat="43.64462" lon="1.37897">
        <ele>148</ele>
        <time>2023-06-23T16:28:24Z</time>
      </trkpt>
      <trkpt lat="43.64461" lon="1.379">
        <ele>148</ele>
        <time>2023-06-23T16:28:25Z</time>
      </trkpt>
      <trkpt lat="43.6446" lon="1.37903">
        <ele>148</ele>
        <time>2023-06-23T16:28:26Z</time>
      </trkpt>
      <trkpt lat="43.64459" lon="1.37907">
        <ele>148</ele>
        <time>2023-06-23T16:28:27Z</time>
      </trkpt>
      <trkpt lat="43.64459" lon="1.37907">
        <ele>148</ele>
        <time>2023-06-23T16:28:28Z</time>
      </trkpt>
      <trkpt lat="43.64459" lon="1.37914">
        <ele>148</ele>
        <time>2023-06-23T16:28:29Z</time>
      </trkpt>
      <trkpt lat="43.64459" lon="1.37917">
        <ele>148</ele>
        <time>2023-06-23T16:28:30Z</time>
      </trkpt>
      <trkpt lat="43.6446" lon="1.37921">
        <ele>148</ele>
        <time>2023-06-23T16:28:31Z</time>
      </trkpt>
      <trkpt lat="43.6446" lon="1.37925">
        <ele>148</ele>
        <time>2023-06-23T16:28:32Z</time>
      </trkpt>
      <trkpt lat="43.64461" lon="1.37929">
        <ele>148</ele>
        <time>2023-06-23T16:28:33Z</time>
      </trkpt>
      <trkpt lat="43.64462" lon="1.37932">
        <ele>148</ele>
        <time>2023-06-23T16:28:34Z</time>
      </trkpt>
      <trkpt lat="43.64463" lon="1.37935">
        <ele>148</ele>
        <time>2023-06-23T16:28:35Z</time>
      </trkpt>
      <trkpt lat="43.64464" lon="1.37939">
        <ele>148</ele>
        <time>2023-06-23T16:28:36Z</time>
      </trkpt>
      <trkpt lat="43.64466" lon="1.37942">
        <ele>148</ele>
        <time>2023-06-23T16:28:37Z</time>
      </trkpt>
      <trkpt lat="43.64468" lon="1.37945">
        <ele>148</ele>
        <time>2023-06-23T16:28:38Z</time>
      </trkpt>
      <trkpt lat="43.6447" lon="1.37948">
        <ele>148</ele>
        <time>2023-06-23T16:28:39Z</time>
      </trkpt>
      <trkpt lat="43.64472" lon="1.3795">
        <ele>148</ele>
        <time>2023-06-23T16:28:40Z</time>
      </trkpt>
      <trkpt lat="43.64474" lon="1.37951">
        <ele>148</ele>
        <time>2023-06-23T16:28:41Z</time>
      </trkpt>
      <trkpt lat="43.64476" lon="1.37954">
        <ele>148</ele>
        <time>2023-06-23T16:28:42Z</time>
      </trkpt>
      <trkpt lat="43.64478" lon="1.37955">
        <ele>148</ele>
        <time>2023-06-23T16:28:43Z</time>
      </trkpt>
      <trkpt lat="43.6448" lon="1.37957">
        <ele>148</ele>
        <time>2023-06-23T16:28:44Z</time>
      </trkpt>
      <trkpt lat="43.64482" lon="1.37959">
        <ele>148</ele>
        <time>2023-06-23T16:28:45Z</time>
      </trkpt>
      <trkpt lat="43.64485" lon="1.3796">
        <ele>148</ele>
        <time>2023-06-23T16:28:46Z</time>
      </trkpt>
      <trkpt lat="43.64489" lon="1.37964">
        <ele>148</ele>
        <time>2023-06-23T16:28:48Z</time>
      </trkpt>
      <trkpt lat="43.64491" lon="1.37966">
        <ele>148</ele>
        <time>2023-06-23T16:28:49Z</time>
      </trkpt>
      <trkpt lat="43.64494" lon="1.37968">
        <ele>148</ele>
        <time>2023-06-23T16:28:50Z</time>
      </trkpt>
      <trkpt lat="43.64497" lon="1.3797">
        <ele>148</ele>
        <time>2023-06-23T16:28:51Z</time>
      </trkpt>
      <trkpt lat="43.64499" lon="1.37972">
        <ele>148</ele>
        <time>2023-06-23T16:28:52Z</time>
      </trkpt>
      <trkpt lat="43.64502" lon="1.37973">
        <ele>148</ele>
        <time>2023-06-23T16:28:53Z</time>
      </trkpt>
      <trkpt lat="43.64505" lon="1.37975">
        <ele>148</ele>
        <time>2023-06-23T16:28:54Z</time>
      </trkpt>
      <trkpt lat="43.64508" lon="1.37976">
        <ele>148</ele>
        <time>2023-06-23T16:28:55Z</time>
      </trkpt>
      <trkpt lat="43.64513" lon="1.37978">
        <ele>148</ele>
        <time>2023-06-23T16:28:57Z</time>
      </trkpt>
      <trkpt lat="43.64518" lon="1.3798">
        <ele>148</ele>
        <time>2023-06-23T16:28:58Z</time>
      </trkpt>
      <trkpt lat="43.64519" lon="1.37981">
        <ele>148</ele>
        <time>2023-06-23T16:28:59Z</time>
      </trkpt>
      <trkpt lat="43.64522" lon="1.37982">
        <ele>148</ele>
        <time>2023-06-23T16:29:00Z</time>
      </trkpt>
      <trkpt lat="43.64525" lon="1.37984">
        <ele>148</ele>
        <time>2023-06-23T16:29:01Z</time>
      </trkpt>
      <trkpt lat="43.64528" lon="1.37986">
        <ele>148</ele>
        <time>2023-06-23T16:29:02Z</time>
      </trkpt>
      <trkpt lat="43.64532" lon="1.37987">
        <ele>148</ele>
        <time>2023-06-23T16:29:03Z</time>
      </trkpt>
      <trkpt lat="43.64533" lon="1.37988">
        <ele>147</ele>
        <time>2023-06-23T16:29:04Z</time>
      </trkpt>
      <trkpt lat="43.64537" lon="1.37989">
        <ele>147</ele>
        <time>2023-06-23T16:29:05Z</time>
      </trkpt>
      <trkpt lat="43.64539" lon="1.37989">
        <ele>147</ele>
        <time>2023-06-23T16:29:06Z</time>
      </trkpt>
      <trkpt lat="43.64542" lon="1.37988">
        <ele>148</ele>
        <time>2023-06-23T16:29:07Z</time>
      </trkpt>
      <trkpt lat="43.64545" lon="1.37987">
        <ele>148</ele>
        <time>2023-06-23T16:29:08Z</time>
      </trkpt>
      <trkpt lat="43.64548" lon="1.37984">
        <ele>148</ele>
        <time>2023-06-23T16:29:09Z</time>
      </trkpt>
      <trkpt lat="43.64552" lon="1.37982">
        <ele>148</ele>
        <time>2023-06-23T16:29:10Z</time>
      </trkpt>
      <trkpt lat="43.64556" lon="1.3798">
        <ele>148</ele>
        <time>2023-06-23T16:29:11Z</time>
      </trkpt>
      <trkpt lat="43.64558" lon="1.37977">
        <ele>148</ele>
        <time>2023-06-23T16:29:12Z</time>
      </trkpt>
      <trkpt lat="43.64561" lon="1.37974">
        <ele>148</ele>
        <time>2023-06-23T16:29:13Z</time>
      </trkpt>
      <trkpt lat="43.64563" lon="1.37971">
        <ele>148</ele>
        <time>2023-06-23T16:29:14Z</time>
      </trkpt>
      <trkpt lat="43.64566" lon="1.37964">
        <ele>148</ele>
        <time>2023-06-23T16:29:16Z</time>
      </trkpt>
      <trkpt lat="43.64567" lon="1.37961">
        <ele>148</ele>
        <time>2023-06-23T16:29:17Z</time>
      </trkpt>
      <trkpt lat="43.64567" lon="1.37961">
        <ele>148</ele>
        <time>2023-06-23T16:29:18Z</time>
      </trkpt>
      <trkpt lat="43.64568" lon="1.37956">
        <ele>148</ele>
        <time>2023-06-23T16:29:19Z</time>
      </trkpt>
      <trkpt lat="43.64568" lon="1.37952">
        <ele>148</ele>
        <time>2023-06-23T16:29:20Z</time>
      </trkpt>
      <trkpt lat="43.64568" lon="1.37947">
        <ele>148</ele>
        <time>2023-06-23T16:29:21Z</time>
      </trkpt>
      <trkpt lat="43.64569" lon="1.37942">
        <ele>148</ele>
        <time>2023-06-23T16:29:22Z</time>
      </trkpt>
      <trkpt lat="43.64569" lon="1.37938">
        <ele>148</ele>
        <time>2023-06-23T16:29:23Z</time>
      </trkpt>
      <trkpt lat="43.64568" lon="1.37934">
        <ele>148</ele>
        <time>2023-06-23T16:29:24Z</time>
      </trkpt>
      <trkpt lat="43.64567" lon="1.3793">
        <ele>148</ele>
        <time>2023-06-23T16:29:25Z</time>
      </trkpt>
      <trkpt lat="43.64565" lon="1.37926">
        <ele>148</ele>
        <time>2023-06-23T16:29:26Z</time>
      </trkpt>
      <trkpt lat="43.64563" lon="1.37922">
        <ele>148</ele>
        <time>2023-06-23T16:29:27Z</time>
      </trkpt>
      <trkpt lat="43.64562" lon="1.37918">
        <ele>148</ele>
        <time>2023-06-23T16:29:28Z</time>
      </trkpt>
      <trkpt lat="43.6456" lon="1.37915">
        <ele>148</ele>
        <time>2023-06-23T16:29:29Z</time>
      </trkpt>
      <trkpt lat="43.64557" lon="1.37913">
        <ele>148</ele>
        <time>2023-06-23T16:29:30Z</time>
      </trkpt>
      <trkpt lat="43.64555" lon="1.3791">
        <ele>148</ele>
        <time>2023-06-23T16:29:31Z</time>
      </trkpt>
      <trkpt lat="43.64553" lon="1.37908">
        <ele>148</ele>
        <time>2023-06-23T16:29:32Z</time>
      </trkpt>
      <trkpt lat="43.6455" lon="1.37906">
        <ele>148</ele>
        <time>2023-06-23T16:29:33Z</time>
      </trkpt>
      <trkpt lat="43.64547" lon="1.37904">
        <ele>148</ele>
        <time>2023-06-23T16:29:34Z</time>
      </trkpt>
      <trkpt lat="43.64545" lon="1.37903">
        <ele>148</ele>
        <time>2023-06-23T16:29:35Z</time>
      </trkpt>
      <trkpt lat="43.64543" lon="1.37902">
        <ele>148</ele>
        <time>2023-06-23T16:29:36Z</time>
      </trkpt>
      <trkpt lat="43.64539" lon="1.37899">
        <ele>148</ele>
        <time>2023-06-23T16:29:37Z</time>
      </trkpt>
      <trkpt lat="43.64538" lon="1.37898">
        <ele>148</ele>
        <time>2023-06-23T16:29:38Z</time>
      </trkpt>
      <trkpt lat="43.64535" lon="1.37896">
        <ele>148</ele>
        <time>2023-06-23T16:29:39Z</time>
      </trkpt>
      <trkpt lat="43.64532" lon="1.37895">
        <ele>148</ele>
        <time>2023-06-23T16:29:40Z</time>
      </trkpt>
      <trkpt lat="43.64529" lon="1.37893">
        <ele>148</ele>
        <time>2023-06-23T16:29:41Z</time>
      </trkpt>
      <trkpt lat="43.64526" lon="1.37891">
        <ele>148</ele>
        <time>2023-06-23T16:29:42Z</time>
      </trkpt>
      <trkpt lat="43.64524" lon="1.37889">
        <ele>148</ele>
        <time>2023-06-23T16:29:43Z</time>
      </trkpt>
      <trkpt lat="43.64521" lon="1.37888">
        <ele>148</ele>
        <time>2023-06-23T16:29:44Z</time>
      </trkpt>
      <trkpt lat="43.64519" lon="1.37886">
        <ele>148</ele>
        <time>2023-06-23T16:29:45Z</time>
      </trkpt>
      <trkpt lat="43.64516" lon="1.37884">
        <ele>148</ele>
        <time>2023-06-23T16:29:46Z</time>
      </trkpt>
      <trkpt lat="43.64513" lon="1.37882">
        <ele>148</ele>
        <time>2023-06-23T16:29:47Z</time>
      </trkpt>
      <trkpt lat="43.6451" lon="1.37881">
        <ele>148</ele>
        <time>2023-06-23T16:29:48Z</time>
      </trkpt>
      <trkpt lat="43.64507" lon="1.37879">
        <ele>148</ele>
        <time>2023-06-23T16:29:49Z</time>
      </trkpt>
      <trkpt lat="43.64505" lon="1.37878">
        <ele>148</ele>
        <time>2023-06-23T16:29:50Z</time>
      </trkpt>
      <trkpt lat="43.64502" lon="1.37877">
        <ele>148</ele>
        <time>2023-06-23T16:29:51Z</time>
      </trkpt>
      <trkpt lat="43.64499" lon="1.37875">
        <ele>148</ele>
        <time>2023-06-23T16:29:52Z</time>
      </trkpt>
      <trkpt lat="43.64492" lon="1.37873">
        <ele>148</ele>
        <time>2023-06-23T16:29:54Z</time>
      </trkpt>
      <trkpt lat="43.64491" lon="1.37873">
        <ele>148</ele>
        <time>2023-06-23T16:29:55Z</time>
      </trkpt>
      <trkpt lat="43.64488" lon="1.37872">
        <ele>148</ele>
        <time>2023-06-23T16:29:56Z</time>
      </trkpt>
      <trkpt lat="43.64485" lon="1.37872">
        <ele>148</ele>
        <time>2023-06-23T16:29:57Z</time>
      </trkpt>
      <trkpt lat="43.64482" lon="1.37873">
        <ele>148</ele>
        <time>2023-06-23T16:29:58Z</time>
      </trkpt>
      <trkpt lat="43.6448" lon="1.37875">
        <ele>148</ele>
        <time>2023-06-23T16:29:59Z</time>
      </trkpt>
      <trkpt lat="43.64477" lon="1.37876">
        <ele>148</ele>
        <time>2023-06-23T16:30:00Z</time>
      </trkpt>
      <trkpt lat="43.64474" lon="1.37878">
        <ele>148</ele>
        <time>2023-06-23T16:30:01Z</time>
      </trkpt>
      <trkpt lat="43.6447" lon="1.37881">
        <ele>148</ele>
        <time>2023-06-23T16:30:02Z</time>
      </trkpt>
      <trkpt lat="43.64469" lon="1.37882">
        <ele>148</ele>
        <time>2023-06-23T16:30:03Z</time>
      </trkpt>
      <trkpt lat="43.64467" lon="1.37884">
        <ele>148</ele>
        <time>2023-06-23T16:30:04Z</time>
      </trkpt>
      <trkpt lat="43.64465" lon="1.37887">
        <ele>148</ele>
        <time>2023-06-23T16:30:05Z</time>
      </trkpt>
      <trkpt lat="43.64464" lon="1.3789">
        <ele>148</ele>
        <time>2023-06-23T16:30:06Z</time>
      </trkpt>
      <trkpt lat="43.64462" lon="1.37894">
        <ele>148</ele>
        <time>2023-06-23T16:30:07Z</time>
      </trkpt>
      <trkpt lat="43.64461" lon="1.37896">
        <ele>148</ele>
        <time>2023-06-23T16:30:08Z</time>
      </trkpt>
      <trkpt lat="43.6446" lon="1.379">
        <ele>148</ele>
        <time>2023-06-23T16:30:09Z</time>
      </trkpt>
      <trkpt lat="43.64459" lon="1.37903">
        <ele>148</ele>
        <time>2023-06-23T16:30:10Z</time>
      </trkpt>
      <trkpt lat="43.64459" lon="1.37907">
        <ele>148</ele>
        <time>2023-06-23T16:30:11Z</time>
      </trkpt>
      <trkpt lat="43.64459" lon="1.37912">
        <ele>148</ele>
        <time>2023-06-23T16:30:12Z</time>
      </trkpt>
      <trkpt lat="43.64459" lon="1.37914">
        <ele>148</ele>
        <time>2023-06-23T16:30:13Z</time>
      </trkpt>
      <trkpt lat="43.64459" lon="1.37918">
        <ele>148</ele>
        <time>2023-06-23T16:30:14Z</time>
      </trkpt>
      <trkpt lat="43.64459" lon="1.37922">
        <ele>148</ele>
        <time>2023-06-23T16:30:15Z</time>
      </trkpt>
      <trkpt lat="43.64459" lon="1.37926">
        <ele>148</ele>
        <time>2023-06-23T16:30:16Z</time>
      </trkpt>
      <trkpt lat="43.6446" lon="1.37931">
        <ele>148</ele>
        <time>2023-06-23T16:30:17Z</time>
      </trkpt>
      <trkpt lat="43.64461" lon="1.37932">
        <ele>148</ele>
        <time>2023-06-23T16:30:18Z</time>
      </trkpt>
      <trkpt lat="43.64462" lon="1.37936">
        <ele>148</ele>
        <time>2023-06-23T16:30:19Z</time>
      </trkpt>
      <trkpt lat="43.64464" lon="1.37939">
        <ele>148</ele>
        <time>2023-06-23T16:30:20Z</time>
      </trkpt>
      <trkpt lat="43.64465" lon="1.37941">
        <ele>148</ele>
        <time>2023-06-23T16:30:21Z</time>
      </trkpt>
      <trkpt lat="43.64467" lon="1.37944">
        <ele>148</ele>
        <time>2023-06-23T16:30:22Z</time>
      </trkpt>
      <trkpt lat="43.64469" lon="1.37947">
        <ele>148</ele>
        <time>2023-06-23T16:30:23Z</time>
      </trkpt>
      <trkpt lat="43.64471" lon="1.3795">
        <ele>148</ele>
        <time>2023-06-23T16:30:24Z</time>
      </trkpt>
      <trkpt lat="43.64473" lon="1.37952">
        <ele>148</ele>
        <time>2023-06-23T16:30:25Z</time>
      </trkpt>
      <trkpt lat="43.64476" lon="1.37954">
        <ele>148</ele>
        <time>2023-06-23T16:30:26Z</time>
      </trkpt>
      <trkpt lat="43.64479" lon="1.37955">
        <ele>148</ele>
        <time>2023-06-23T16:30:27Z</time>
      </trkpt>
      <trkpt lat="43.64481" lon="1.37957">
        <ele>148</ele>
        <time>2023-06-23T16:30:28Z</time>
      </trkpt>
      <trkpt lat="43.64484" lon="1.37959">
        <ele>148</ele>
        <time>2023-06-23T16:30:29Z</time>
      </trkpt>
      <trkpt lat="43.64488" lon="1.37961">
        <ele>148</ele>
        <time>2023-06-23T16:30:30Z</time>
      </trkpt>
      <trkpt lat="43.6449" lon="1.37962">
        <ele>148</ele>
        <time>2023-06-23T16:30:31Z</time>
      </trkpt>
      <trkpt lat="43.64492" lon="1.37963">
        <ele>148</ele>
        <time>2023-06-23T16:30:32Z</time>
      </trkpt>
      <trkpt lat="43.64495" lon="1.37964">
        <ele>148</ele>
        <time>2023-06-23T16:30:33Z</time>
      </trkpt>
      <trkpt lat="43.64498" lon="1.37967">
        <ele>148</ele>
        <time>2023-06-23T16:30:34Z</time>
      </trkpt>
      <trkpt lat="43.64501" lon="1.37969">
        <ele>148</ele>
        <time>2023-06-23T16:30:35Z</time>
      </trkpt>
      <trkpt lat="43.64504" lon="1.37971">
        <ele>148</ele>
        <time>2023-06-23T16:30:36Z</time>
      </trkpt>
      <trkpt lat="43.64506" lon="1.37972">
        <ele>148</ele>
        <time>2023-06-23T16:30:37Z</time>
      </trkpt>
      <trkpt lat="43.64509" lon="1.37974">
        <ele>148</ele>
        <time>2023-06-23T16:30:38Z</time>
      </trkpt>
      <trkpt lat="43.64511" lon="1.37975">
        <ele>148</ele>
        <time>2023-06-23T16:30:39Z</time>
      </trkpt>
      <trkpt lat="43.64514" lon="1.37976">
        <ele>148</ele>
        <time>2023-06-23T16:30:40Z</time>
      </trkpt>
      <trkpt lat="43.64516" lon="1.37977">
        <ele>148</ele>
        <time>2023-06-23T16:30:41Z</time>
      </trkpt>
      <trkpt lat="43.64519" lon="1.37978">
        <ele>148</ele>
        <time>2023-06-23T16:30:42Z</time>
      </trkpt>
      <trkpt lat="43.64523" lon="1.37979">
        <ele>148</ele>
        <time>2023-06-23T16:30:43Z</time>
      </trkpt>
      <trkpt lat="43.64523" lon="1.37979">
        <ele>148</ele>
        <time>2023-06-23T16:30:44Z</time>
      </trkpt>
      <trkpt lat="43.64523" lon="1.37979">
        <ele>148</ele>
        <time>2023-06-23T16:30:45Z</time>
      </trkpt>
      <trkpt lat="43.64532" lon="1.37983">
        <ele>148</ele>
        <time>2023-06-23T16:30:46Z</time>
      </trkpt>
      <trkpt lat="43.64536" lon="1.37983">
        <ele>148</ele>
        <time>2023-06-23T16:30:48Z</time>
      </trkpt>
      <trkpt lat="43.6454" lon="1.37983">
        <ele>148</ele>
        <time>2023-06-23T16:30:49Z</time>
      </trkpt>
      <trkpt lat="43.64545" lon="1.37983">
        <ele>148</ele>
        <time>2023-06-23T16:30:50Z</time>
      </trkpt>
      <trkpt lat="43.64549" lon="1.37982">
        <ele>148</ele>
        <time>2023-06-23T16:30:51Z</time>
      </trkpt>
      <trkpt lat="43.64552" lon="1.37981">
        <ele>148</ele>
        <time>2023-06-23T16:30:52Z</time>
      </trkpt>
      <trkpt lat="43.64555" lon="1.3798">
        <ele>148</ele>
        <time>2023-06-23T16:30:53Z</time>
      </trkpt>
      <trkpt lat="43.64557" lon="1.37979">
        <ele>148</ele>
        <time>2023-06-23T16:30:54Z</time>
      </trkpt>
      <trkpt lat="43.6456" lon="1.37976">
        <ele>148</ele>
        <time>2023-06-23T16:30:55Z</time>
      </trkpt>
      <trkpt lat="43.64562" lon="1.37974">
        <ele>148</ele>
        <time>2023-06-23T16:30:56Z</time>
      </trkpt>
      <trkpt lat="43.64564" lon="1.37971">
        <ele>148</ele>
        <time>2023-06-23T16:30:57Z</time>
      </trkpt>
      <trkpt lat="43.64566" lon="1.37968">
        <ele>148</ele>
        <time>2023-06-23T16:30:58Z</time>
      </trkpt>
      <trkpt lat="43.64567" lon="1.37965">
        <ele>148</ele>
        <time>2023-06-23T16:30:59Z</time>
      </trkpt>
      <trkpt lat="43.64569" lon="1.37962">
        <ele>148</ele>
        <time>2023-06-23T16:31:00Z</time>
      </trkpt>
      <trkpt lat="43.6457" lon="1.37958">
        <ele>148</ele>
        <time>2023-06-23T16:31:01Z</time>
      </trkpt>
      <trkpt lat="43.64571" lon="1.3795">
        <ele>148</ele>
        <time>2023-06-23T16:31:03Z</time>
      </trkpt>
      <trkpt lat="43.64571" lon="1.37946">
        <ele>148</ele>
        <time>2023-06-23T16:31:04Z</time>
      </trkpt>
      <trkpt lat="43.64571" lon="1.37941">
        <ele>148</ele>
        <time>2023-06-23T16:31:05Z</time>
      </trkpt>
      <trkpt lat="43.6457" lon="1.37937">
        <ele>148</ele>
        <time>2023-06-23T16:31:06Z</time>
      </trkpt>
      <trkpt lat="43.64569" lon="1.37933">
        <ele>148</ele>
        <time>2023-06-23T16:31:07Z</time>
      </trkpt>
      <trkpt lat="43.64568" lon="1.37928">
        <ele>148</ele>
        <time>2023-06-23T16:31:08Z</time>
      </trkpt>
      <trkpt lat="43.64567" lon="1.37927">
        <ele>148</ele>
        <time>2023-06-23T16:31:09Z</time>
      </trkpt>
      <trkpt lat="43.64567" lon="1.37925">
        <ele>148</ele>
        <time>2023-06-23T16:31:10Z</time>
      </trkpt>
      <trkpt lat="43.64564" lon="1.3792">
        <ele>148</ele>
        <time>2023-06-23T16:31:11Z</time>
      </trkpt>
      <trkpt lat="43.64561" lon="1.37915">
        <ele>148</ele>
        <time>2023-06-23T16:31:12Z</time>
      </trkpt>
      <trkpt lat="43.64558" lon="1.37913">
        <ele>148</ele>
        <time>2023-06-23T16:31:13Z</time>
      </trkpt>
      <trkpt lat="43.64555" lon="1.37911">
        <ele>148</ele>
        <time>2023-06-23T16:31:14Z</time>
      </trkpt>
      <trkpt lat="43.64552" lon="1.3791">
        <ele>148</ele>
        <time>2023-06-23T16:31:15Z</time>
      </trkpt>
      <trkpt lat="43.64549" lon="1.37909">
        <ele>148</ele>
        <time>2023-06-23T16:31:16Z</time>
      </trkpt>
      <trkpt lat="43.64544" lon="1.37906">
        <ele>148</ele>
        <time>2023-06-23T16:31:17Z</time>
      </trkpt>
      <trkpt lat="43.64543" lon="1.37905">
        <ele>148</ele>
        <time>2023-06-23T16:31:18Z</time>
      </trkpt>
      <trkpt lat="43.6454" lon="1.37902">
        <ele>148</ele>
        <time>2023-06-23T16:31:19Z</time>
      </trkpt>
      <trkpt lat="43.64538" lon="1.379">
        <ele>148</ele>
        <time>2023-06-23T16:31:20Z</time>
      </trkpt>
      <trkpt lat="43.64535" lon="1.37897">
        <ele>148</ele>
        <time>2023-06-23T16:31:21Z</time>
      </trkpt>
      <trkpt lat="43.64531" lon="1.37895">
        <ele>148</ele>
        <time>2023-06-23T16:31:22Z</time>
      </trkpt>
      <trkpt lat="43.64529" lon="1.37894">
        <ele>148</ele>
        <time>2023-06-23T16:31:23Z</time>
      </trkpt>
      <trkpt lat="43.64526" lon="1.37892">
        <ele>148</ele>
        <time>2023-06-23T16:31:24Z</time>
      </trkpt>
      <trkpt lat="43.64523" lon="1.3789">
        <ele>148</ele>
        <time>2023-06-23T16:31:25Z</time>
      </trkpt>
      <trkpt lat="43.64521" lon="1.37889">
        <ele>148</ele>
        <time>2023-06-23T16:31:26Z</time>
      </trkpt>
      <trkpt lat="43.64518" lon="1.37887">
        <ele>148</ele>
        <time>2023-06-23T16:31:27Z</time>
      </trkpt>
      <trkpt lat="43.64515" lon="1.37886">
        <ele>148</ele>
        <time>2023-06-23T16:31:28Z</time>
      </trkpt>
      <trkpt lat="43.64512" lon="1.37884">
        <ele>148</ele>
        <time>2023-06-23T16:31:29Z</time>
      </trkpt>
      <trkpt lat="43.6451" lon="1.37883">
        <ele>148</ele>
        <time>2023-06-23T16:31:30Z</time>
      </trkpt>
      <trkpt lat="43.64507" lon="1.37881">
        <ele>148</ele>
        <time>2023-06-23T16:31:31Z</time>
      </trkpt>
      <trkpt lat="43.64503" lon="1.37879">
        <ele>148</ele>
        <time>2023-06-23T16:31:32Z</time>
      </trkpt>
      <trkpt lat="43.64501" lon="1.37878">
        <ele>148</ele>
        <time>2023-06-23T16:31:33Z</time>
      </trkpt>
      <trkpt lat="43.64497" lon="1.37876">
        <ele>148</ele>
        <time>2023-06-23T16:31:34Z</time>
      </trkpt>
      <trkpt lat="43.64496" lon="1.37875">
        <ele>148</ele>
        <time>2023-06-23T16:31:35Z</time>
      </trkpt>
      <trkpt lat="43.64493" lon="1.37874">
        <ele>148</ele>
        <time>2023-06-23T16:31:36Z</time>
      </trkpt>
      <trkpt lat="43.64491" lon="1.37874">
        <ele>148</ele>
        <time>2023-06-23T16:31:37Z</time>
      </trkpt>
      <trkpt lat="43.64488" lon="1.37874">
        <ele>148</ele>
        <time>2023-06-23T16:31:38Z</time>
      </trkpt>
      <trkpt lat="43.64485" lon="1.37874">
        <ele>148</ele>
        <time>2023-06-23T16:31:39Z</time>
      </trkpt>
      <trkpt lat="43.64482" lon="1.37874">
        <ele>148</ele>
        <time>2023-06-23T16:31:40Z</time>
      </trkpt>
      <trkpt lat="43.64479" lon="1.37875">
        <ele>148</ele>
        <time>2023-06-23T16:31:41Z</time>
      </trkpt>
      <trkpt lat="43.64476" lon="1.37875">
        <ele>148</ele>
        <time>2023-06-23T16:31:42Z</time>
      </trkpt>
      <trkpt lat="43.64474" lon="1.37877">
        <ele>148</ele>
        <time>2023-06-23T16:31:43Z</time>
      </trkpt>
      <trkpt lat="43.64471" lon="1.37879">
        <ele>148</ele>
        <time>2023-06-23T16:31:44Z</time>
      </trkpt>
      <trkpt lat="43.64469" lon="1.3788">
        <ele>148</ele>
        <time>2023-06-23T16:31:45Z</time>
      </trkpt>
      <trkpt lat="43.64468" lon="1.37883">
        <ele>148</ele>
        <time>2023-06-23T16:31:46Z</time>
      </trkpt>
      <trkpt lat="43.64465" lon="1.37887">
        <ele>148</ele>
        <time>2023-06-23T16:31:47Z</time>
      </trkpt>
      <trkpt lat="43.64464" lon="1.37889">
        <ele>148</ele>
        <time>2023-06-23T16:31:48Z</time>
      </trkpt>
      <trkpt lat="43.64462" lon="1.37894">
        <ele>148</ele>
        <time>2023-06-23T16:31:49Z</time>
      </trkpt>
      <trkpt lat="43.64462" lon="1.37895">
        <ele>148</ele>
        <time>2023-06-23T16:31:50Z</time>
      </trkpt>
      <trkpt lat="43.64461" lon="1.37899">
        <ele>148</ele>
        <time>2023-06-23T16:31:51Z</time>
      </trkpt>
      <trkpt lat="43.64461" lon="1.37904">
        <ele>148</ele>
        <time>2023-06-23T16:31:52Z</time>
      </trkpt>
      <trkpt lat="43.6446" lon="1.37906">
        <ele>148</ele>
        <time>2023-06-23T16:31:53Z</time>
      </trkpt>
      <trkpt lat="43.6446" lon="1.3791">
        <ele>148</ele>
        <time>2023-06-23T16:31:54Z</time>
      </trkpt>
      <trkpt lat="43.6446" lon="1.37914">
        <ele>148</ele>
        <time>2023-06-23T16:31:55Z</time>
      </trkpt>
      <trkpt lat="43.64459" lon="1.37918">
        <ele>148</ele>
        <time>2023-06-23T16:31:56Z</time>
      </trkpt>
      <trkpt lat="43.64459" lon="1.37923">
        <ele>148</ele>
        <time>2023-06-23T16:31:57Z</time>
      </trkpt>
      <trkpt lat="43.6446" lon="1.37926">
        <ele>148</ele>
        <time>2023-06-23T16:31:58Z</time>
      </trkpt>
      <trkpt lat="43.64461" lon="1.3793">
        <ele>148</ele>
        <time>2023-06-23T16:31:59Z</time>
      </trkpt>
      <trkpt lat="43.64462" lon="1.37934">
        <ele>148</ele>
        <time>2023-06-23T16:32:00Z</time>
      </trkpt>
      <trkpt lat="43.64463" lon="1.37937">
        <ele>148</ele>
        <time>2023-06-23T16:32:01Z</time>
      </trkpt>
      <trkpt lat="43.64465" lon="1.37941">
        <ele>148</ele>
        <time>2023-06-23T16:32:02Z</time>
      </trkpt>
      <trkpt lat="43.64466" lon="1.37944">
        <ele>148</ele>
        <time>2023-06-23T16:32:03Z</time>
      </trkpt>
      <trkpt lat="43.64468" lon="1.37946">
        <ele>148</ele>
        <time>2023-06-23T16:32:04Z</time>
      </trkpt>
      <trkpt lat="43.6447" lon="1.37949">
        <ele>148</ele>
        <time>2023-06-23T16:32:05Z</time>
      </trkpt>
      <trkpt lat="43.64473" lon="1.37952">
        <ele>148</ele>
        <time>2023-06-23T16:32:06Z</time>
      </trkpt>
      <trkpt lat="43.64474" lon="1.37954">
        <ele>148</ele>
        <time>2023-06-23T16:32:07Z</time>
      </trkpt>
      <trkpt lat="43.64476" lon="1.37955">
        <ele>148</ele>
        <time>2023-06-23T16:32:08Z</time>
      </trkpt>
      <trkpt lat="43.64479" lon="1.37958">
        <ele>148</ele>
        <time>2023-06-23T16:32:09Z</time>
      </trkpt>
      <trkpt lat="43.64481" lon="1.3796">
        <ele>148</ele>
        <time>2023-06-23T16:32:10Z</time>
      </trkpt>
      <trkpt lat="43.64482" lon="1.37961">
        <ele>148</ele>
        <time>2023-06-23T16:32:11Z</time>
      </trkpt>
      <trkpt lat="43.64484" lon="1.37962">
        <ele>148</ele>
        <time>2023-06-23T16:32:12Z</time>
      </trkpt>
      <trkpt lat="43.64487" lon="1.37964">
        <ele>148</ele>
        <time>2023-06-23T16:32:13Z</time>
      </trkpt>
      <trkpt lat="43.6449" lon="1.37967">
        <ele>148</ele>
        <time>2023-06-23T16:32:14Z</time>
      </trkpt>
      <trkpt lat="43.64493" lon="1.37968">
        <ele>148</ele>
        <time>2023-06-23T16:32:15Z</time>
      </trkpt>
      <trkpt lat="43.64496" lon="1.3797">
        <ele>148</ele>
        <time>2023-06-23T16:32:16Z</time>
      </trkpt>
      <trkpt lat="43.64499" lon="1.37971">
        <ele>148</ele>
        <time>2023-06-23T16:32:17Z</time>
      </trkpt>
      <trkpt lat="43.64501" lon="1.37972">
        <ele>148</ele>
        <time>2023-06-23T16:32:18Z</time>
      </trkpt>
      <trkpt lat="43.64504" lon="1.37974">
        <ele>148</ele>
        <time>2023-06-23T16:32:19Z</time>
      </trkpt>
      <trkpt lat="43.64507" lon="1.37976">
        <ele>148</ele>
        <time>2023-06-23T16:32:20Z</time>
      </trkpt>
      <trkpt lat="43.6451" lon="1.37977">
        <ele>148</ele>
        <time>2023-06-23T16:32:21Z</time>
      </trkpt>
      <trkpt lat="43.64514" lon="1.37978">
        <ele>148</ele>
        <time>2023-06-23T16:32:22Z</time>
      </trkpt>
      <trkpt lat="43.64517" lon="1.3798">
        <ele>148</ele>
        <time>2023-06-23T16:32:23Z</time>
      </trkpt>
      <trkpt lat="43.64522" lon="1.37983">
        <ele>148</ele>
        <time>2023-06-23T16:32:24Z</time>
      </trkpt>
      <trkpt lat="43.64525" lon="1.37984">
        <ele>148</ele>
        <time>2023-06-23T16:32:26Z</time>
      </trkpt>
      <trkpt lat="43.64528" lon="1.37986">
        <ele>148</ele>
        <time>2023-06-23T16:32:27Z</time>
      </trkpt>
      <trkpt lat="43.64532" lon="1.37988">
        <ele>148</ele>
        <time>2023-06-23T16:32:28Z</time>
      </trkpt>
      <trkpt lat="43.64533" lon="1.37988">
        <ele>148</ele>
        <time>2023-06-23T16:32:29Z</time>
      </trkpt>
      <trkpt lat="43.64536" lon="1.3799">
        <ele>148</ele>
        <time>2023-06-23T16:32:30Z</time>
      </trkpt>
      <trkpt lat="43.64539" lon="1.37989">
        <ele>148</ele>
        <time>2023-06-23T16:32:31Z</time>
      </trkpt>
      <trkpt lat="43.64545" lon="1.37987">
        <ele>148</ele>
        <time>2023-06-23T16:32:32Z</time>
      </trkpt>
      <trkpt lat="43.64547" lon="1.37986">
        <ele>148</ele>
        <time>2023-06-23T16:32:33Z</time>
      </trkpt>
      <trkpt lat="43.64551" lon="1.37983">
        <ele>148</ele>
        <time>2023-06-23T16:32:34Z</time>
      </trkpt>
      <trkpt lat="43.64555" lon="1.37981">
        <ele>148</ele>
        <time>2023-06-23T16:32:35Z</time>
      </trkpt>
      <trkpt lat="43.64558" lon="1.37978">
        <ele>148</ele>
        <time>2023-06-23T16:32:36Z</time>
      </trkpt>
      <trkpt lat="43.64561" lon="1.37975">
        <ele>148</ele>
        <time>2023-06-23T16:32:37Z</time>
      </trkpt>
      <trkpt lat="43.64564" lon="1.37972">
        <ele>148</ele>
        <time>2023-06-23T16:32:38Z</time>
      </trkpt>
      <trkpt lat="43.64566" lon="1.37969">
        <ele>148</ele>
        <time>2023-06-23T16:32:39Z</time>
      </trkpt>
      <trkpt lat="43.64568" lon="1.37965">
        <ele>148</ele>
        <time>2023-06-23T16:32:40Z</time>
      </trkpt>
      <trkpt lat="43.64569" lon="1.37962">
        <ele>148</ele>
        <time>2023-06-23T16:32:41Z</time>
      </trkpt>
      <trkpt lat="43.64571" lon="1.37954">
        <ele>148</ele>
        <time>2023-06-23T16:32:43Z</time>
      </trkpt>
      <trkpt lat="43.64571" lon="1.37946">
        <ele>148</ele>
        <time>2023-06-23T16:32:45Z</time>
      </trkpt>
      <trkpt lat="43.64571" lon="1.37942">
        <ele>148</ele>
        <time>2023-06-23T16:32:46Z</time>
      </trkpt>
      <trkpt lat="43.64571" lon="1.37937">
        <ele>148</ele>
        <time>2023-06-23T16:32:47Z</time>
      </trkpt>
      <trkpt lat="43.64571" lon="1.37933">
        <ele>148</ele>
        <time>2023-06-23T16:32:48Z</time>
      </trkpt>
      <trkpt lat="43.6457" lon="1.3793">
        <ele>148</ele>
        <time>2023-06-23T16:32:49Z</time>
      </trkpt>
      <trkpt lat="43.64568" lon="1.37924">
        <ele>148</ele>
        <time>2023-06-23T16:32:50Z</time>
      </trkpt>
      <trkpt lat="43.64567" lon="1.37922">
        <ele>148</ele>
        <time>2023-06-23T16:32:51Z</time>
      </trkpt>
      <trkpt lat="43.64565" lon="1.37918">
        <ele>148</ele>
        <time>2023-06-23T16:32:52Z</time>
      </trkpt>
      <trkpt lat="43.64562" lon="1.37915">
        <ele>148</ele>
        <time>2023-06-23T16:32:53Z</time>
      </trkpt>
      <trkpt lat="43.6456" lon="1.37912">
        <ele>148</ele>
        <time>2023-06-23T16:32:54Z</time>
      </trkpt>
      <trkpt lat="43.64557" lon="1.37909">
        <ele>148</ele>
        <time>2023-06-23T16:32:55Z</time>
      </trkpt>
      <trkpt lat="43.64554" lon="1.37907">
        <ele>148</ele>
        <time>2023-06-23T16:32:56Z</time>
      </trkpt>
      <trkpt lat="43.64551" lon="1.37905">
        <ele>148</ele>
        <time>2023-06-23T16:32:57Z</time>
      </trkpt>
      <trkpt lat="43.64545" lon="1.37902">
        <ele>148</ele>
        <time>2023-06-23T16:32:59Z</time>
      </trkpt>
      <trkpt lat="43.64542" lon="1.37901">
        <ele>148</ele>
        <time>2023-06-23T16:33:00Z</time>
      </trkpt>
      <trkpt lat="43.64539" lon="1.37899">
        <ele>148</ele>
        <time>2023-06-23T16:33:01Z</time>
      </trkpt>
      <trkpt lat="43.64536" lon="1.37898">
        <ele>148</ele>
        <time>2023-06-23T16:33:02Z</time>
      </trkpt>
      <trkpt lat="43.6453" lon="1.37895">
        <ele>148</ele>
        <time>2023-06-23T16:33:04Z</time>
      </trkpt>
      <trkpt lat="43.64527" lon="1.37893">
        <ele>148</ele>
        <time>2023-06-23T16:33:05Z</time>
      </trkpt>
      <trkpt lat="43.64524" lon="1.37892">
        <ele>148</ele>
        <time>2023-06-23T16:33:06Z</time>
      </trkpt>
      <trkpt lat="43.64521" lon="1.37891">
        <ele>148</ele>
        <time>2023-06-23T16:33:07Z</time>
      </trkpt>
      <trkpt lat="43.64518" lon="1.3789">
        <ele>148</ele>
        <time>2023-06-23T16:33:08Z</time>
      </trkpt>
      <trkpt lat="43.64515" lon="1.37888">
        <ele>148</ele>
        <time>2023-06-23T16:33:09Z</time>
      </trkpt>
      <trkpt lat="43.64512" lon="1.37886">
        <ele>148</ele>
        <time>2023-06-23T16:33:10Z</time>
      </trkpt>
      <trkpt lat="43.64509" lon="1.37885">
        <ele>148</ele>
        <time>2023-06-23T16:33:11Z</time>
      </trkpt>
      <trkpt lat="43.64506" lon="1.37883">
        <ele>148</ele>
        <time>2023-06-23T16:33:12Z</time>
      </trkpt>
      <trkpt lat="43.64503" lon="1.3788">
        <ele>148</ele>
        <time>2023-06-23T16:33:13Z</time>
      </trkpt>
      <trkpt lat="43.645" lon="1.37878">
        <ele>148</ele>
        <time>2023-06-23T16:33:14Z</time>
      </trkpt>
      <trkpt lat="43.64498" lon="1.37876">
        <ele>148</ele>
        <time>2023-06-23T16:33:15Z</time>
      </trkpt>
      <trkpt lat="43.64495" lon="1.37874">
        <ele>148</ele>
        <time>2023-06-23T16:33:16Z</time>
      </trkpt>
      <trkpt lat="43.64492" lon="1.37873">
        <ele>148</ele>
        <time>2023-06-23T16:33:17Z</time>
      </trkpt>
      <trkpt lat="43.64489" lon="1.37872">
        <ele>148</ele>
        <time>2023-06-23T16:33:18Z</time>
      </trkpt>
      <trkpt lat="43.64486" lon="1.37872">
        <ele>148</ele>
        <time>2023-06-23T16:33:19Z</time>
      </trkpt>
      <trkpt lat="43.64483" lon="1.37872">
        <ele>148</ele>
        <time>2023-06-23T16:33:20Z</time>
      </trkpt>
      <trkpt lat="43.6448" lon="1.37873">
        <ele>148</ele>
        <time>2023-06-23T16:33:21Z</time>
      </trkpt>
      <trkpt lat="43.64476" lon="1.37875">
        <ele>148</ele>
        <time>2023-06-23T16:33:22Z</time>
      </trkpt>
      <trkpt lat="43.64475" lon="1.37876">
        <ele>148</ele>
        <time>2023-06-23T16:33:23Z</time>
      </trkpt>
      <trkpt lat="43.64472" lon="1.37878">
        <ele>148</ele>
        <time>2023-06-23T16:33:24Z</time>
      </trkpt>
      <trkpt lat="43.6447" lon="1.3788">
        <ele>148</ele>
        <time>2023-06-23T16:33:25Z</time>
      </trkpt>
      <trkpt lat="43.64467" lon="1.37882">
        <ele>148</ele>
        <time>2023-06-23T16:33:26Z</time>
      </trkpt>
      <trkpt lat="43.64466" lon="1.37885">
        <ele>148</ele>
        <time>2023-06-23T16:33:27Z</time>
      </trkpt>
      <trkpt lat="43.64464" lon="1.3789">
        <ele>148</ele>
        <time>2023-06-23T16:33:28Z</time>
      </trkpt>
      <trkpt lat="43.64463" lon="1.37892">
        <ele>148</ele>
        <time>2023-06-23T16:33:29Z</time>
      </trkpt>
      <trkpt lat="43.64463" lon="1.37894">
        <ele>148</ele>
        <time>2023-06-23T16:33:30Z</time>
      </trkpt>
      <trkpt lat="43.64462" lon="1.37898">
        <ele>148</ele>
        <time>2023-06-23T16:33:31Z</time>
      </trkpt>
      <trkpt lat="43.64461" lon="1.37902">
        <ele>148</ele>
        <time>2023-06-23T16:33:32Z</time>
      </trkpt>
      <trkpt lat="43.64461" lon="1.37905">
        <ele>148</ele>
        <time>2023-06-23T16:33:33Z</time>
      </trkpt>
      <trkpt lat="43.64461" lon="1.37909">
        <ele>148</ele>
        <time>2023-06-23T16:33:34Z</time>
      </trkpt>
      <trkpt lat="43.64461" lon="1.37913">
        <ele>148</ele>
        <time>2023-06-23T16:33:35Z</time>
      </trkpt>
      <trkpt lat="43.6446" lon="1.37917">
        <ele>148</ele>
        <time>2023-06-23T16:33:36Z</time>
      </trkpt>
      <trkpt lat="43.64461" lon="1.37921">
        <ele>148</ele>
        <time>2023-06-23T16:33:37Z</time>
      </trkpt>
      <trkpt lat="43.64461" lon="1.37925">
        <ele>148</ele>
        <time>2023-06-23T16:33:38Z</time>
      </trkpt>
      <trkpt lat="43.64462" lon="1.37929">
        <ele>148</ele>
        <time>2023-06-23T16:33:39Z</time>
      </trkpt>
      <trkpt lat="43.64463" lon="1.37933">
        <ele>148</ele>
        <time>2023-06-23T16:33:40Z</time>
      </trkpt>
      <trkpt lat="43.64466" lon="1.37941">
        <ele>148</ele>
        <time>2023-06-23T16:33:42Z</time>
      </trkpt>
      <trkpt lat="43.64467" lon="1.37944">
        <ele>148</ele>
        <time>2023-06-23T16:33:43Z</time>
      </trkpt>
      <trkpt lat="43.64469" lon="1.37947">
        <ele>148</ele>
        <time>2023-06-23T16:33:44Z</time>
      </trkpt>
      <trkpt lat="43.64472" lon="1.37949">
        <ele>148</ele>
        <time>2023-06-23T16:33:45Z</time>
      </trkpt>
      <trkpt lat="43.64474" lon="1.37951">
        <ele>148</ele>
        <time>2023-06-23T16:33:46Z</time>
      </trkpt>
      <trkpt lat="43.64474" lon="1.37951">
        <ele>148</ele>
        <time>2023-06-23T16:33:47Z</time>
      </trkpt>
      <trkpt lat="43.64479" lon="1.37954">
        <ele>148</ele>
        <time>2023-06-23T16:33:48Z</time>
      </trkpt>
      <trkpt lat="43.64485" lon="1.37958">
        <ele>148</ele>
        <time>2023-06-23T16:33:50Z</time>
      </trkpt>
      <trkpt lat="43.64488" lon="1.3796">
        <ele>148</ele>
        <time>2023-06-23T16:33:51Z</time>
      </trkpt>
      <trkpt lat="43.6449" lon="1.37962">
        <ele>148</ele>
        <time>2023-06-23T16:33:52Z</time>
      </trkpt>
      <trkpt lat="43.64493" lon="1.37964">
        <ele>148</ele>
        <time>2023-06-23T16:33:53Z</time>
      </trkpt>
      <trkpt lat="43.64495" lon="1.37965">
        <ele>148</ele>
        <time>2023-06-23T16:33:54Z</time>
      </trkpt>
      <trkpt lat="43.64499" lon="1.37967">
        <ele>148</ele>
        <time>2023-06-23T16:33:55Z</time>
      </trkpt>
      <trkpt lat="43.64501" lon="1.37969">
        <ele>148</ele>
        <time>2023-06-23T16:33:56Z</time>
      </trkpt>
      <trkpt lat="43.64504" lon="1.37971">
        <ele>148</ele>
        <time>2023-06-23T16:33:57Z</time>
      </trkpt>
      <trkpt lat="43.64506" lon="1.37972">
        <ele>148</ele>
        <time>2023-06-23T16:33:58Z</time>
      </trkpt>
      <trkpt lat="43.64508" lon="1.37974">
        <ele>148</ele>
        <time>2023-06-23T16:33:59Z</time>
      </trkpt>
      <trkpt lat="43.64514" lon="1.37978">
        <ele>148</ele>
        <time>2023-06-23T16:34:01Z</time>
      </trkpt>
      <trkpt lat="43.64518" lon="1.37981">
        <ele>148</ele>
        <time>2023-06-23T16:34:02Z</time>
      </trkpt>
      <trkpt lat="43.64519" lon="1.37982">
        <ele>148</ele>
        <time>2023-06-23T16:34:03Z</time>
      </trkpt>
      <trkpt lat="43.64523" lon="1.37986">
        <ele>148</ele>
        <time>2023-06-23T16:34:04Z</time>
      </trkpt>
      <trkpt lat="43.64525" lon="1.37987">
        <ele>148</ele>
        <time>2023-06-23T16:34:05Z</time>
      </trkpt>
      <trkpt lat="43.64528" lon="1.37988">
        <ele>148</ele>
        <time>2023-06-23T16:34:06Z</time>
      </trkpt>
      <trkpt lat="43.64531" lon="1.3799">
        <ele>148</ele>
        <time>2023-06-23T16:34:07Z</time>
      </trkpt>
      <trkpt lat="43.64534" lon="1.3799">
        <ele>148</ele>
        <time>2023-06-23T16:34:08Z</time>
      </trkpt>
      <trkpt lat="43.64536" lon="1.37991">
        <ele>148</ele>
        <time>2023-06-23T16:34:09Z</time>
      </trkpt>
      <trkpt lat="43.64539" lon="1.3799">
        <ele>148</ele>
        <time>2023-06-23T16:34:10Z</time>
      </trkpt>
      <trkpt lat="43.64542" lon="1.37989">
        <ele>148</ele>
        <time>2023-06-23T16:34:11Z</time>
      </trkpt>
      <trkpt lat="43.64545" lon="1.37987">
        <ele>148</ele>
        <time>2023-06-23T16:34:12Z</time>
      </trkpt>
      <trkpt lat="43.64549" lon="1.37984">
        <ele>148</ele>
        <time>2023-06-23T16:34:13Z</time>
      </trkpt>
      <trkpt lat="43.64554" lon="1.3798">
        <ele>148</ele>
        <time>2023-06-23T16:34:14Z</time>
      </trkpt>
      <trkpt lat="43.64556" lon="1.37979">
        <ele>148</ele>
        <time>2023-06-23T16:34:15Z</time>
      </trkpt>
      <trkpt lat="43.64559" lon="1.37975">
        <ele>148</ele>
        <time>2023-06-23T16:34:16Z</time>
      </trkpt>
      <trkpt lat="43.6456" lon="1.37971">
        <ele>148</ele>
        <time>2023-06-23T16:34:17Z</time>
      </trkpt>
      <trkpt lat="43.64563" lon="1.37966">
        <ele>148</ele>
        <time>2023-06-23T16:34:18Z</time>
      </trkpt>
      <trkpt lat="43.64566" lon="1.37958">
        <ele>148</ele>
        <time>2023-06-23T16:34:20Z</time>
      </trkpt>
      <trkpt lat="43.64568" lon="1.37954">
        <ele>148</ele>
        <time>2023-06-23T16:34:21Z</time>
      </trkpt>
      <trkpt lat="43.64569" lon="1.37949">
        <ele>148</ele>
        <time>2023-06-23T16:34:22Z</time>
      </trkpt>
      <trkpt lat="43.64569" lon="1.37945">
        <ele>148</ele>
        <time>2023-06-23T16:34:23Z</time>
      </trkpt>
      <trkpt lat="43.64569" lon="1.3794">
        <ele>148</ele>
        <time>2023-06-23T16:34:24Z</time>
      </trkpt>
      <trkpt lat="43.64568" lon="1.37936">
        <ele>148</ele>
        <time>2023-06-23T16:34:25Z</time>
      </trkpt>
      <trkpt lat="43.64567" lon="1.37931">
        <ele>148</ele>
        <time>2023-06-23T16:34:26Z</time>
      </trkpt>
      <trkpt lat="43.64566" lon="1.37927">
        <ele>148</ele>
        <time>2023-06-23T16:34:27Z</time>
      </trkpt>
      <trkpt lat="43.64564" lon="1.37923">
        <ele>148</ele>
        <time>2023-06-23T16:34:28Z</time>
      </trkpt>
      <trkpt lat="43.64562" lon="1.3792">
        <ele>148</ele>
        <time>2023-06-23T16:34:29Z</time>
      </trkpt>
      <trkpt lat="43.64559" lon="1.37914">
        <ele>148</ele>
        <time>2023-06-23T16:34:30Z</time>
      </trkpt>
      <trkpt lat="43.64558" lon="1.37913">
        <ele>148</ele>
        <time>2023-06-23T16:34:31Z</time>
      </trkpt>
      <trkpt lat="43.64556" lon="1.3791">
        <ele>148</ele>
        <time>2023-06-23T16:34:32Z</time>
      </trkpt>
      <trkpt lat="43.64553" lon="1.37907">
        <ele>148</ele>
        <time>2023-06-23T16:34:33Z</time>
      </trkpt>
      <trkpt lat="43.64551" lon="1.37905">
        <ele>148</ele>
        <time>2023-06-23T16:34:34Z</time>
      </trkpt>
      <trkpt lat="43.64548" lon="1.37903">
        <ele>148</ele>
        <time>2023-06-23T16:34:35Z</time>
      </trkpt>
      <trkpt lat="43.64545" lon="1.37901">
        <ele>148</ele>
        <time>2023-06-23T16:34:36Z</time>
      </trkpt>
      <trkpt lat="43.64542" lon="1.379">
        <ele>148</ele>
        <time>2023-06-23T16:34:37Z</time>
      </trkpt>
      <trkpt lat="43.64537" lon="1.37897">
        <ele>148</ele>
        <time>2023-06-23T16:34:39Z</time>
      </trkpt>
      <trkpt lat="43.64534" lon="1.37895">
        <ele>148</ele>
        <time>2023-06-23T16:34:40Z</time>
      </trkpt>
      <trkpt lat="43.64531" lon="1.37893">
        <ele>148</ele>
        <time>2023-06-23T16:34:41Z</time>
      </trkpt>
      <trkpt lat="43.64528" lon="1.37892">
        <ele>148</ele>
        <time>2023-06-23T16:34:42Z</time>
      </trkpt>
      <trkpt lat="43.64526" lon="1.3789">
        <ele>148</ele>
        <time>2023-06-23T16:34:43Z</time>
      </trkpt>
      <trkpt lat="43.64523" lon="1.37889">
        <ele>148</ele>
        <time>2023-06-23T16:34:44Z</time>
      </trkpt>
      <trkpt lat="43.6452" lon="1.37887">
        <ele>148</ele>
        <time>2023-06-23T16:34:45Z</time>
      </trkpt>
      <trkpt lat="43.64517" lon="1.37886">
        <ele>148</ele>
        <time>2023-06-23T16:34:46Z</time>
      </trkpt>
      <trkpt lat="43.64514" lon="1.37885">
        <ele>148</ele>
        <time>2023-06-23T16:34:47Z</time>
      </trkpt>
      <trkpt lat="43.64511" lon="1.37884">
        <ele>148</ele>
        <time>2023-06-23T16:34:48Z</time>
      </trkpt>
      <trkpt lat="43.64508" lon="1.37882">
        <ele>148</ele>
        <time>2023-06-23T16:34:49Z</time>
      </trkpt>
      <trkpt lat="43.64505" lon="1.3788">
        <ele>148</ele>
        <time>2023-06-23T16:34:50Z</time>
      </trkpt>
      <trkpt lat="43.64499" lon="1.37875">
        <ele>148</ele>
        <time>2023-06-23T16:34:52Z</time>
      </trkpt>
      <trkpt lat="43.64496" lon="1.37873">
        <ele>148</ele>
        <time>2023-06-23T16:34:53Z</time>
      </trkpt>
      <trkpt lat="43.64492" lon="1.37872">
        <ele>148</ele>
        <time>2023-06-23T16:34:54Z</time>
      </trkpt>
      <trkpt lat="43.64489" lon="1.37872">
        <ele>148</ele>
        <time>2023-06-23T16:34:55Z</time>
      </trkpt>
      <trkpt lat="43.64486" lon="1.37873">
        <ele>148</ele>
        <time>2023-06-23T16:34:56Z</time>
      </trkpt>
      <trkpt lat="43.64481" lon="1.37874">
        <ele>148</ele>
        <time>2023-06-23T16:34:57Z</time>
      </trkpt>
      <trkpt lat="43.6448" lon="1.37874">
        <ele>148</ele>
        <time>2023-06-23T16:34:58Z</time>
      </trkpt>
      <trkpt lat="43.64475" lon="1.37876">
        <ele>148</ele>
        <time>2023-06-23T16:34:59Z</time>
      </trkpt>
      <trkpt lat="43.64473" lon="1.37877">
        <ele>148</ele>
        <time>2023-06-23T16:35:00Z</time>
      </trkpt>
      <trkpt lat="43.64471" lon="1.37879">
        <ele>148</ele>
        <time>2023-06-23T16:35:01Z</time>
      </trkpt>
      <trkpt lat="43.64467" lon="1.37882">
        <ele>148</ele>
        <time>2023-06-23T16:35:02Z</time>
      </trkpt>
      <trkpt lat="43.64466" lon="1.37884">
        <ele>148</ele>
        <time>2023-06-23T16:35:03Z</time>
      </trkpt>
      <trkpt lat="43.64464" lon="1.37886">
        <ele>148</ele>
        <time>2023-06-23T16:35:04Z</time>
      </trkpt>
      <trkpt lat="43.64462" lon="1.37889">
        <ele>148</ele>
        <time>2023-06-23T16:35:05Z</time>
      </trkpt>
      <trkpt lat="43.64461" lon="1.37892">
        <ele>148</ele>
        <time>2023-06-23T16:35:06Z</time>
      </trkpt>
      <trkpt lat="43.6446" lon="1.37896">
        <ele>148</ele>
        <time>2023-06-23T16:35:07Z</time>
      </trkpt>
      <trkpt lat="43.64459" lon="1.379">
        <ele>148</ele>
        <time>2023-06-23T16:35:08Z</time>
      </trkpt>
      <trkpt lat="43.64458" lon="1.37905">
        <ele>148</ele>
        <time>2023-06-23T16:35:09Z</time>
      </trkpt>
      <trkpt lat="43.64458" lon="1.37909">
        <ele>148</ele>
        <time>2023-06-23T16:35:10Z</time>
      </trkpt>
      <trkpt lat="43.64458" lon="1.37913">
        <ele>148</ele>
        <time>2023-06-23T16:35:11Z</time>
      </trkpt>
      <trkpt lat="43.64458" lon="1.37918">
        <ele>148</ele>
        <time>2023-06-23T16:35:12Z</time>
      </trkpt>
      <trkpt lat="43.64458" lon="1.37922">
        <ele>148</ele>
        <time>2023-06-23T16:35:13Z</time>
      </trkpt>
      <trkpt lat="43.64458" lon="1.37926">
        <ele>148</ele>
        <time>2023-06-23T16:35:14Z</time>
      </trkpt>
      <trkpt lat="43.64459" lon="1.3793">
        <ele>148</ele>
        <time>2023-06-23T16:35:15Z</time>
      </trkpt>
      <trkpt lat="43.64461" lon="1.37936">
        <ele>148</ele>
        <time>2023-06-23T16:35:16Z</time>
      </trkpt>
      <trkpt lat="43.64462" lon="1.37938">
        <ele>148</ele>
        <time>2023-06-23T16:35:17Z</time>
      </trkpt>
      <trkpt lat="43.64464" lon="1.37942">
        <ele>148</ele>
        <time>2023-06-23T16:35:18Z</time>
      </trkpt>
      <trkpt lat="43.64468" lon="1.37947">
        <ele>148</ele>
        <time>2023-06-23T16:35:19Z</time>
      </trkpt>
      <trkpt lat="43.64469" lon="1.37948">
        <ele>148</ele>
        <time>2023-06-23T16:35:20Z</time>
      </trkpt>
      <trkpt lat="43.64473" lon="1.37952">
        <ele>148</ele>
        <time>2023-06-23T16:35:21Z</time>
      </trkpt>
      <trkpt lat="43.64474" lon="1.37953">
        <ele>148</ele>
        <time>2023-06-23T16:35:22Z</time>
      </trkpt>
      <trkpt lat="43.64477" lon="1.37955">
        <ele>148</ele>
        <time>2023-06-23T16:35:23Z</time>
      </trkpt>
      <trkpt lat="43.64479" lon="1.37958">
        <ele>148</ele>
        <time>2023-06-23T16:35:24Z</time>
      </trkpt>
      <trkpt lat="43.64482" lon="1.3796">
        <ele>148</ele>
        <time>2023-06-23T16:35:25Z</time>
      </trkpt>
      <trkpt lat="43.64485" lon="1.37962">
        <ele>148</ele>
        <time>2023-06-23T16:35:26Z</time>
      </trkpt>
      <trkpt lat="43.64488" lon="1.37964">
        <ele>148</ele>
        <time>2023-06-23T16:35:27Z</time>
      </trkpt>
      <trkpt lat="43.6449" lon="1.37965">
        <ele>148</ele>
        <time>2023-06-23T16:35:28Z</time>
      </trkpt>
      <trkpt lat="43.64494" lon="1.37967">
        <ele>148</ele>
        <time>2023-06-23T16:35:29Z</time>
      </trkpt>
      <trkpt lat="43.64497" lon="1.37969">
        <ele>148</ele>
        <time>2023-06-23T16:35:30Z</time>
      </trkpt>
      <trkpt lat="43.64501" lon="1.37971">
        <ele>148</ele>
        <time>2023-06-23T16:35:31Z</time>
      </trkpt>
      <trkpt lat="43.64502" lon="1.37972">
        <ele>148</ele>
        <time>2023-06-23T16:35:32Z</time>
      </trkpt>
      <trkpt lat="43.64505" lon="1.37974">
        <ele>148</ele>
        <time>2023-06-23T16:35:33Z</time>
      </trkpt>
      <trkpt lat="43.64505" lon="1.37974">
        <ele>148</ele>
        <time>2023-06-23T16:35:34Z</time>
      </trkpt>
    </trkseg>
  </trk>
</gpx>